RA44704 URRP-VTSP
Flight info
| Callsign | RA44704 |
|---|---|
| Flight time | 8h 34m |
| Altitude | 37000 |
| Route | URRP SID BANPA A87 AZABI Q161 TIROM A845 ATASH A846 ABDAN A909 LEMOD N644 MESRA/F400 N644 REGET/F410 J145 DI M875 LEBIB A466 JHANG M875 KAKID M770 OBMOG L515 IKULA R325 MUDMA L515 UPSAB STAR VTSP |
| Aircraft | B752/M-SDFGHIRWY/S |
Departure
| Time | 2026-04-23 05:00 |
|---|---|
| Airport | Platov International Airport (URRP) |
Arrival
| Time | 2026-04-23 13:34 |
|---|---|
| Airport | Phuket International Airport (VTSP) |
| Time | Latitude | Longitude | Altitude | Speed | Heading |
|---|---|---|---|---|---|
| 2026-04-23 04:31 | 47.49164 | 39.93257 | 294 ft | 0 kts | 144° |
| 2026-04-23 04:50 | 47.49175 | 39.93245 | 294 ft | 2 kts | 144° |
| 2026-04-23 04:50 | 47.49187 | 39.93233 | 294 ft | 2 kts | 144° |
| 2026-04-23 04:50 | 47.49199 | 39.93220 | 294 ft | 2 kts | 144° |
| 2026-04-23 04:51 | 47.49211 | 39.93207 | 294 ft | 2 kts | 144° |
| 2026-04-23 04:51 | 47.49222 | 39.93196 | 294 ft | 0 kts | 144° |
| 2026-04-23 04:51 | 47.49231 | 39.93185 | 294 ft | 2 kts | 126° |
| 2026-04-23 04:51 | 47.49237 | 39.93165 | 294 ft | 2 kts | 102° |
| 2026-04-23 04:52 | 47.49238 | 39.93143 | 294 ft | 2 kts | 77° |
| 2026-04-23 04:52 | 47.49234 | 39.93126 | 294 ft | 0 kts | 57° |
| 2026-04-23 04:52 | 47.49229 | 39.93118 | 294 ft | 0 kts | 53° |
| 2026-04-23 04:54 | 47.49232 | 39.93122 | 294 ft | 4 kts | 54° |
| 2026-04-23 04:54 | 47.49276 | 39.93214 | 294 ft | 11 kts | 54° |
| 2026-04-23 04:54 | 47.49313 | 39.93291 | 294 ft | 6 kts | 55° |
| 2026-04-23 04:54 | 47.49337 | 39.93341 | 294 ft | 8 kts | 55° |
| 2026-04-23 04:55 | 47.49377 | 39.93422 | 294 ft | 5 kts | 45° |
| 2026-04-23 04:55 | 47.49415 | 39.93434 | 294 ft | 5 kts | 339° |
| 2026-04-23 04:55 | 47.49452 | 39.93397 | 294 ft | 8 kts | 325° |
| 2026-04-23 04:55 | 47.49508 | 39.93339 | 294 ft | 7 kts | 324° |
| 2026-04-23 04:56 | 47.49554 | 39.93297 | 294 ft | 7 kts | 345° |
| 2026-04-23 04:56 | 47.49601 | 39.93334 | 294 ft | 11 kts | 52° |
| 2026-04-23 04:56 | 47.49669 | 39.93470 | 294 ft | 21 kts | 54° |
| 2026-04-23 04:56 | 47.49765 | 39.93665 | 294 ft | 25 kts | 53° |
| 2026-04-23 04:57 | 47.49875 | 39.93889 | 294 ft | 28 kts | 54° |
| 2026-04-23 04:57 | 47.49995 | 39.94136 | 294 ft | 29 kts | 54° |
| 2026-04-23 04:57 | 47.50095 | 39.94345 | 294 ft | 18 kts | 54° |
| 2026-04-23 04:57 | 47.50160 | 39.94479 | 294 ft | 8 kts | 54° |
| 2026-04-23 04:58 | 47.50198 | 39.94523 | 294 ft | 5 kts | 11° |
| 2026-04-23 04:58 | 47.50234 | 39.94509 | 294 ft | 5 kts | 333° |
| 2026-04-23 04:58 | 47.50285 | 39.94452 | 294 ft | 12 kts | 320° |
| 2026-04-23 04:58 | 47.50318 | 39.94386 | 294 ft | 4 kts | 259° |
| 2026-04-23 04:59 | 47.50296 | 39.94327 | 294 ft | 8 kts | 234° |
| 2026-04-23 04:59 | 47.50210 | 39.94149 | 294 ft | 52 kts | 235° |
| 2026-04-23 04:59 | 47.49842 | 39.93384 | 294 ft | 130 kts | 234° |
| 2026-04-23 04:59 | 47.49193 | 39.92046 | 514 ft | 177 kts | 236° |
| 2026-04-23 05:00 | 47.48441 | 39.90506 | 1317 ft | 195 kts | 236° |
| 2026-04-23 05:00 | 47.47679 | 39.88951 | 2314 ft | 189 kts | 236° |
| 2026-04-23 05:00 | 47.46880 | 39.87294 | 2797 ft | 201 kts | 236° |
| 2026-04-23 05:00 | 47.46008 | 39.85726 | 3369 ft | 208 kts | 219° |
| 2026-04-23 05:01 | 47.44581 | 39.84909 | 3629 ft | 235 kts | 185° |
| 2026-04-23 05:01 | 47.42934 | 39.85427 | 3966 ft | 259 kts | 154° |
| 2026-04-23 05:01 | 47.41548 | 39.87270 | 4395 ft | 278 kts | 123° |
| 2026-04-23 05:01 | 47.40917 | 39.89948 | 5050 ft | 284 kts | 95° |
| 2026-04-23 05:02 | 47.40791 | 39.92891 | 5669 ft | 289 kts | 97° |
| 2026-04-23 05:02 | 47.40525 | 39.95800 | 6308 ft | 292 kts | 100° |
| 2026-04-23 05:02 | 47.40176 | 39.98769 | 6959 ft | 294 kts | 102° |
| 2026-04-23 05:02 | 47.39787 | 40.01706 | 7609 ft | 296 kts | 103° |
| 2026-04-23 05:03 | 47.39364 | 40.04688 | 8220 ft | 298 kts | 103° |
| 2026-04-23 05:03 | 47.38931 | 40.07646 | 8834 ft | 300 kts | 103° |
| 2026-04-23 05:03 | 47.38479 | 40.10675 | 9431 ft | 302 kts | 103° |
| 2026-04-23 05:03 | 47.38021 | 40.13713 | 10000 ft | 305 kts | 103° |
| 2026-04-23 05:04 | 47.37549 | 40.16815 | 10244 ft | 321 kts | 103° |
| 2026-04-23 05:04 | 47.37049 | 40.20090 | 10378 ft | 339 kts | 103° |
| 2026-04-23 05:04 | 47.36520 | 40.23545 | 10673 ft | 350 kts | 103° |
| 2026-04-23 05:04 | 47.35981 | 40.27056 | 11249 ft | 352 kts | 104° |
| 2026-04-23 05:05 | 47.35442 | 40.30557 | 11781 ft | 355 kts | 104° |
| 2026-04-23 05:05 | 47.34892 | 40.34121 | 12302 ft | 358 kts | 104° |
| 2026-04-23 05:05 | 47.34342 | 40.37683 | 12800 ft | 362 kts | 104° |
| 2026-04-23 05:05 | 47.33778 | 40.41318 | 13325 ft | 364 kts | 104° |
| 2026-04-23 05:06 | 47.33210 | 40.44971 | 13809 ft | 368 kts | 104° |
| 2026-04-23 05:06 | 47.32643 | 40.48615 | 14319 ft | 370 kts | 104° |
| 2026-04-23 05:06 | 47.32064 | 40.52326 | 14796 ft | 374 kts | 104° |
| 2026-04-23 05:06 | 47.31479 | 40.56064 | 15286 ft | 377 kts | 104° |
| 2026-04-23 05:07 | 47.30889 | 40.59827 | 15750 ft | 380 kts | 104° |
| 2026-04-23 05:07 | 47.30291 | 40.63631 | 16237 ft | 382 kts | 104° |
| 2026-04-23 05:07 | 47.29695 | 40.67413 | 16710 ft | 385 kts | 105° |
| 2026-04-23 05:07 | 47.29086 | 40.71275 | 17141 ft | 388 kts | 105° |
| 2026-04-23 05:08 | 47.28470 | 40.75161 | 17567 ft | 392 kts | 105° |
| 2026-04-23 05:08 | 47.27852 | 40.79056 | 18115 ft | 393 kts | 105° |
| 2026-04-23 05:08 | 47.27229 | 40.82976 | 18556 ft | 396 kts | 105° |
| 2026-04-23 05:08 | 47.26608 | 40.86873 | 19031 ft | 399 kts | 105° |
| 2026-04-23 05:09 | 47.25970 | 40.90860 | 19470 ft | 402 kts | 105° |
| 2026-04-23 05:09 | 47.25326 | 40.94881 | 19908 ft | 405 kts | 105° |
| 2026-04-23 05:09 | 47.24678 | 40.98917 | 20325 ft | 409 kts | 105° |
| 2026-04-23 05:09 | 47.24022 | 41.02995 | 20792 ft | 410 kts | 105° |
| 2026-04-23 05:10 | 47.23376 | 41.06993 | 21150 ft | 414 kts | 105° |
| 2026-04-23 05:10 | 47.22719 | 41.11059 | 21623 ft | 415 kts | 105° |
| 2026-04-23 05:10 | 47.22047 | 41.15200 | 22033 ft | 417 kts | 105° |
| 2026-04-23 05:10 | 47.21114 | 41.19229 | 22388 ft | 417 kts | 118° |
| 2026-04-23 05:11 | 47.19833 | 41.23060 | 22790 ft | 418 kts | 118° |
| 2026-04-23 05:11 | 47.18561 | 41.26864 | 23181 ft | 420 kts | 119° |
| 2026-04-23 05:11 | 47.17254 | 41.30733 | 23552 ft | 423 kts | 119° |
| 2026-04-23 05:11 | 47.15953 | 41.34561 | 23917 ft | 425 kts | 119° |
| 2026-04-23 05:12 | 47.14624 | 41.38458 | 24261 ft | 428 kts | 119° |
| 2026-04-23 05:12 | 47.13291 | 41.42353 | 24568 ft | 431 kts | 119° |
| 2026-04-23 05:12 | 47.11941 | 41.46288 | 24927 ft | 433 kts | 119° |
| 2026-04-23 05:12 | 47.10586 | 41.50236 | 25265 ft | 436 kts | 119° |
| 2026-04-23 05:13 | 47.09217 | 41.54215 | 25638 ft | 438 kts | 120° |
| 2026-04-23 05:13 | 47.07839 | 41.58213 | 25990 ft | 440 kts | 120° |
| 2026-04-23 05:13 | 47.06458 | 41.62213 | 26305 ft | 443 kts | 120° |
| 2026-04-23 05:14 | 47.03678 | 41.70250 | 26947 ft | 447 kts | 121° |
| 2026-04-23 05:14 | 47.02261 | 41.74335 | 27250 ft | 450 kts | 121° |
| 2026-04-23 05:14 | 47.00841 | 41.78423 | 27568 ft | 451 kts | 121° |
| 2026-04-23 05:14 | 46.99433 | 41.82471 | 27837 ft | 454 kts | 121° |
| 2026-04-23 05:15 | 46.97997 | 41.86589 | 28174 ft | 455 kts | 121° |
| 2026-04-23 05:15 | 46.96555 | 41.90722 | 28426 ft | 457 kts | 121° |
| 2026-04-23 05:15 | 46.95108 | 41.94863 | 28699 ft | 459 kts | 121° |
| 2026-04-23 05:15 | 46.93647 | 41.99035 | 28875 ft | 463 kts | 121° |
| 2026-04-23 05:16 | 46.92181 | 42.03218 | 29208 ft | 464 kts | 121° |
| 2026-04-23 05:16 | 46.90722 | 42.07372 | 29417 ft | 467 kts | 121° |
| 2026-04-23 05:16 | 46.89273 | 42.11491 | 29620 ft | 470 kts | 121° |
| 2026-04-23 05:16 | 46.87780 | 42.15731 | 29874 ft | 471 kts | 121° |
| 2026-04-23 05:17 | 46.86277 | 42.19990 | 30076 ft | 474 kts | 122° |
| 2026-04-23 05:17 | 46.84754 | 42.24300 | 30278 ft | 477 kts | 122° |
| 2026-04-23 05:17 | 46.83246 | 42.28560 | 30472 ft | 480 kts | 122° |
| 2026-04-23 05:17 | 46.81709 | 42.32893 | 30701 ft | 482 kts | 122° |
| 2026-04-23 05:18 | 46.80166 | 42.37239 | 30914 ft | 484 kts | 122° |
| 2026-04-23 05:18 | 46.78617 | 42.41594 | 31167 ft | 483 kts | 123° |
| 2026-04-23 05:18 | 46.77072 | 42.45932 | 31386 ft | 483 kts | 123° |
| 2026-04-23 05:18 | 46.75518 | 42.50284 | 31595 ft | 484 kts | 123° |
| 2026-04-23 05:19 | 46.73980 | 42.54584 | 31802 ft | 483 kts | 123° |
| 2026-04-23 05:19 | 46.72425 | 42.58929 | 32050 ft | 482 kts | 122° |
| 2026-04-23 05:19 | 46.70892 | 42.63201 | 32222 ft | 483 kts | 123° |
| 2026-04-23 05:19 | 46.69328 | 42.67559 | 32367 ft | 484 kts | 123° |
| 2026-04-23 05:20 | 46.67776 | 42.71874 | 32648 ft | 481 kts | 123° |
| 2026-04-23 05:20 | 46.64652 | 42.80533 | 32879 ft | 483 kts | 123° |
| 2026-04-23 05:21 | 46.61538 | 42.89140 | 32897 ft | 483 kts | 124° |
| 2026-04-23 05:21 | 46.58423 | 42.97722 | 32898 ft | 481 kts | 124° |
| 2026-04-23 05:22 | 46.55300 | 43.06294 | 32900 ft | 483 kts | 124° |
| 2026-04-23 05:22 | 46.52168 | 43.14870 | 32920 ft | 483 kts | 124° |
| 2026-04-23 05:23 | 46.49004 | 43.23500 | 32916 ft | 484 kts | 124° |
| 2026-04-23 05:23 | 46.46450 | 43.32577 | 32926 ft | 493 kts | 115° |
| 2026-04-23 05:24 | 46.44144 | 43.41943 | 32916 ft | 493 kts | 115° |
| 2026-04-23 05:24 | 46.41857 | 43.51218 | 32933 ft | 491 kts | 115° |
| 2026-04-23 05:25 | 46.39551 | 43.60531 | 32924 ft | 495 kts | 115° |
| 2026-04-23 05:25 | 46.37213 | 43.69942 | 32911 ft | 495 kts | 116° |
| 2026-04-23 05:26 | 46.34893 | 43.79242 | 32915 ft | 494 kts | 116° |
| 2026-04-23 05:26 | 46.32551 | 43.88591 | 32916 ft | 496 kts | 116° |
| 2026-04-23 05:27 | 46.30206 | 43.97906 | 32918 ft | 498 kts | 116° |
| 2026-04-23 05:27 | 46.27844 | 44.07264 | 32921 ft | 496 kts | 116° |
| 2026-04-23 05:28 | 46.25479 | 44.16590 | 32920 ft | 498 kts | 116° |
| 2026-04-23 05:28 | 46.23095 | 44.25954 | 32905 ft | 496 kts | 116° |
| 2026-04-23 05:29 | 46.20692 | 44.35340 | 32902 ft | 500 kts | 117° |
| 2026-04-23 05:29 | 46.18286 | 44.44714 | 32920 ft | 505 kts | 116° |
| 2026-04-23 05:30 | 46.15853 | 44.54159 | 32914 ft | 502 kts | 117° |
| 2026-04-23 05:30 | 46.13416 | 44.63575 | 32933 ft | 503 kts | 116° |
| 2026-04-23 05:31 | 46.10979 | 44.72950 | 32896 ft | 501 kts | 117° |
| 2026-04-23 05:31 | 46.08527 | 44.82350 | 32913 ft | 502 kts | 117° |
| 2026-04-23 05:32 | 46.06078 | 44.91698 | 32920 ft | 502 kts | 117° |
| 2026-04-23 05:32 | 46.03622 | 45.01042 | 32904 ft | 494 kts | 117° |
| 2026-04-23 05:33 | 46.01210 | 45.10186 | 32920 ft | 493 kts | 117° |
| 2026-04-23 05:33 | 45.98767 | 45.19410 | 32942 ft | 495 kts | 118° |
| 2026-04-23 05:34 | 45.96315 | 45.28635 | 32933 ft | 495 kts | 118° |
| 2026-04-23 05:34 | 45.93868 | 45.37810 | 32940 ft | 495 kts | 118° |
| 2026-04-23 05:35 | 45.91410 | 45.46984 | 32952 ft | 495 kts | 118° |
| 2026-04-23 05:35 | 45.88928 | 45.56217 | 32952 ft | 494 kts | 118° |
| 2026-04-23 05:36 | 45.86459 | 45.65365 | 32975 ft | 494 kts | 119° |
| 2026-04-23 05:36 | 45.83975 | 45.74538 | 32963 ft | 491 kts | 119° |
| 2026-04-23 05:37 | 45.81495 | 45.83648 | 32956 ft | 496 kts | 119° |
| 2026-04-23 05:37 | 45.78998 | 45.92800 | 32956 ft | 491 kts | 119° |
| 2026-04-23 05:38 | 45.76503 | 46.01893 | 32962 ft | 496 kts | 119° |
| 2026-04-23 05:38 | 45.73981 | 46.11067 | 32960 ft | 493 kts | 119° |
| 2026-04-23 05:39 | 45.71475 | 46.20143 | 32965 ft | 491 kts | 119° |
| 2026-04-23 05:39 | 45.68967 | 46.29187 | 32972 ft | 492 kts | 119° |
| 2026-04-23 05:40 | 45.66457 | 46.38210 | 32976 ft | 491 kts | 119° |
| 2026-04-23 05:40 | 45.63948 | 46.47206 | 32967 ft | 491 kts | 119° |
| 2026-04-23 05:41 | 45.61420 | 46.56242 | 32965 ft | 488 kts | 119° |
| 2026-04-23 05:41 | 45.58912 | 46.65167 | 32963 ft | 488 kts | 120° |
| 2026-04-23 05:42 | 45.56386 | 46.74126 | 32956 ft | 487 kts | 120° |
| 2026-04-23 05:42 | 45.53856 | 46.83066 | 32962 ft | 486 kts | 120° |
| 2026-04-23 05:43 | 45.51322 | 46.91981 | 32973 ft | 489 kts | 120° |
| 2026-04-23 05:43 | 45.48785 | 47.00896 | 32960 ft | 483 kts | 120° |
| 2026-04-23 05:44 | 45.46259 | 47.09716 | 32977 ft | 482 kts | 120° |
| 2026-04-23 05:44 | 45.43735 | 47.18508 | 32975 ft | 483 kts | 120° |
| 2026-04-23 05:45 | 45.41201 | 47.27309 | 32964 ft | 481 kts | 120° |
| 2026-04-23 05:45 | 45.38644 | 47.36144 | 32972 ft | 483 kts | 119° |
| 2026-04-23 05:46 | 45.36192 | 47.44607 | 32975 ft | 477 kts | 120° |
| 2026-04-23 05:46 | 45.33651 | 47.53321 | 32987 ft | 481 kts | 119° |
| 2026-04-23 05:47 | 45.31084 | 47.62110 | 32975 ft | 481 kts | 119° |
| 2026-04-23 05:47 | 45.28548 | 47.70765 | 32966 ft | 476 kts | 120° |
| 2026-04-23 05:48 | 45.26013 | 47.79379 | 32959 ft | 475 kts | 120° |
| 2026-04-23 05:48 | 45.23461 | 47.88018 | 32963 ft | 476 kts | 120° |
| 2026-04-23 05:49 | 45.20906 | 47.96642 | 32963 ft | 477 kts | 120° |
| 2026-04-23 05:49 | 45.18348 | 48.05253 | 32962 ft | 473 kts | 120° |
| 2026-04-23 05:50 | 45.15802 | 48.13784 | 32966 ft | 474 kts | 120° |
| 2026-04-23 05:50 | 45.13248 | 48.22321 | 32964 ft | 470 kts | 120° |
| 2026-04-23 05:51 | 45.10677 | 48.30878 | 32969 ft | 472 kts | 120° |
| 2026-04-23 05:51 | 45.08126 | 48.39346 | 32966 ft | 472 kts | 120° |
| 2026-04-23 05:52 | 45.05551 | 48.47859 | 32969 ft | 470 kts | 119° |
| 2026-04-23 05:52 | 45.02989 | 48.56305 | 32972 ft | 471 kts | 119° |
| 2026-04-23 05:53 | 45.00406 | 48.64791 | 32968 ft | 470 kts | 119° |
| 2026-04-23 05:53 | 44.97838 | 48.73205 | 32960 ft | 468 kts | 120° |
| 2026-04-23 05:54 | 44.95246 | 48.81658 | 32962 ft | 469 kts | 120° |
| 2026-04-23 05:54 | 44.92673 | 48.90033 | 32962 ft | 468 kts | 120° |
| 2026-04-23 05:55 | 44.90083 | 48.98431 | 32962 ft | 468 kts | 120° |
| 2026-04-23 05:55 | 44.87477 | 49.06848 | 32975 ft | 470 kts | 119° |
| 2026-04-23 05:56 | 44.84859 | 49.15283 | 32967 ft | 470 kts | 119° |
| 2026-04-23 05:56 | 44.82230 | 49.23725 | 32965 ft | 472 kts | 119° |
| 2026-04-23 05:57 | 44.79597 | 49.32152 | 32962 ft | 471 kts | 119° |
| 2026-04-23 05:57 | 44.76974 | 49.40517 | 32958 ft | 471 kts | 118° |
| 2026-04-23 05:58 | 44.74205 | 49.48870 | 32968 ft | 468 kts | 126° |
| 2026-04-23 05:58 | 44.70508 | 49.56243 | 32953 ft | 462 kts | 131° |
| 2026-04-23 05:59 | 44.66671 | 49.63459 | 32959 ft | 461 kts | 132° |
| 2026-04-23 05:59 | 44.62815 | 49.70602 | 32956 ft | 460 kts | 133° |
| 2026-04-23 06:00 | 44.58943 | 49.77728 | 32962 ft | 461 kts | 133° |
| 2026-04-23 06:00 | 44.55056 | 49.84856 | 32953 ft | 460 kts | 133° |
| 2026-04-23 06:01 | 44.51183 | 49.91937 | 32958 ft | 462 kts | 133° |
| 2026-04-23 06:01 | 44.47278 | 49.99060 | 32959 ft | 461 kts | 133° |
| 2026-04-23 06:02 | 44.43383 | 50.06145 | 32954 ft | 461 kts | 132° |
| 2026-04-23 06:02 | 44.39471 | 50.13245 | 32956 ft | 461 kts | 133° |
| 2026-04-23 06:03 | 44.35582 | 50.20285 | 32948 ft | 460 kts | 132° |
| 2026-04-23 06:03 | 44.31680 | 50.27330 | 32959 ft | 461 kts | 132° |
| 2026-04-23 06:04 | 44.27759 | 50.34392 | 32956 ft | 460 kts | 132° |
| 2026-04-23 06:04 | 44.23839 | 50.41437 | 32957 ft | 460 kts | 132° |
| 2026-04-23 06:05 | 44.19912 | 50.48478 | 32953 ft | 460 kts | 132° |
| 2026-04-23 06:05 | 44.16011 | 50.55452 | 32955 ft | 460 kts | 132° |
| 2026-04-23 06:06 | 44.12093 | 50.62442 | 32942 ft | 459 kts | 132° |
| 2026-04-23 06:06 | 44.08160 | 50.69442 | 32932 ft | 459 kts | 133° |
| 2026-04-23 06:07 | 44.04220 | 50.76435 | 32941 ft | 459 kts | 132° |
| 2026-04-23 06:07 | 44.00303 | 50.83373 | 32925 ft | 459 kts | 132° |
| 2026-04-23 06:08 | 43.96397 | 50.90273 | 32922 ft | 458 kts | 132° |
| 2026-04-23 06:08 | 43.92458 | 50.97218 | 32917 ft | 457 kts | 132° |
| 2026-04-23 06:09 | 43.88547 | 51.04097 | 32922 ft | 456 kts | 132° |
| 2026-04-23 06:09 | 43.84331 | 51.10589 | 32924 ft | 454 kts | 137° |
| 2026-04-23 06:10 | 43.79969 | 51.16877 | 32922 ft | 453 kts | 137° |
| 2026-04-23 06:10 | 43.75623 | 51.23123 | 32924 ft | 454 kts | 137° |
| 2026-04-23 06:11 | 43.71238 | 51.29411 | 32923 ft | 455 kts | 137° |
| 2026-04-23 06:11 | 43.66857 | 51.35680 | 32921 ft | 453 kts | 137° |
| 2026-04-23 06:12 | 43.62479 | 51.41931 | 32925 ft | 453 kts | 137° |
| 2026-04-23 06:12 | 43.55959 | 51.51213 | 32928 ft | 451 kts | 137° |
| 2026-04-23 06:13 | 43.51599 | 51.57403 | 32929 ft | 451 kts | 137° |
| 2026-04-23 06:13 | 43.47209 | 51.63621 | 32928 ft | 451 kts | 137° |
| 2026-04-23 06:14 | 43.42858 | 51.69771 | 32920 ft | 450 kts | 138° |
| 2026-04-23 06:14 | 43.38483 | 51.75941 | 32922 ft | 452 kts | 138° |
| 2026-04-23 06:15 | 43.34120 | 51.82081 | 32920 ft | 452 kts | 138° |
| 2026-04-23 06:15 | 43.29700 | 51.88176 | 32921 ft | 450 kts | 139° |
| 2026-04-23 06:16 | 43.25268 | 51.94227 | 32923 ft | 450 kts | 139° |
| 2026-04-23 06:16 | 43.20840 | 52.00260 | 32924 ft | 449 kts | 139° |
| 2026-04-23 06:17 | 43.16435 | 52.06249 | 32924 ft | 448 kts | 138° |
| 2026-04-23 06:17 | 43.12001 | 52.12267 | 32924 ft | 449 kts | 139° |
| 2026-04-23 06:18 | 43.07586 | 52.18246 | 32925 ft | 449 kts | 138° |
| 2026-04-23 06:18 | 43.03145 | 52.24249 | 32922 ft | 451 kts | 138° |
| 2026-04-23 06:19 | 42.98714 | 52.30226 | 32925 ft | 450 kts | 138° |
| 2026-04-23 06:19 | 42.94258 | 52.36224 | 32921 ft | 450 kts | 138° |
| 2026-04-23 06:20 | 42.89822 | 52.42182 | 32925 ft | 450 kts | 138° |
| 2026-04-23 06:20 | 42.85358 | 52.48165 | 32928 ft | 450 kts | 138° |
| 2026-04-23 06:21 | 42.80891 | 52.54138 | 32927 ft | 450 kts | 138° |
| 2026-04-23 06:21 | 42.76449 | 52.60067 | 32922 ft | 450 kts | 138° |
| 2026-04-23 06:22 | 42.71986 | 52.66009 | 32924 ft | 451 kts | 139° |
| 2026-04-23 06:22 | 42.67505 | 52.71962 | 32920 ft | 452 kts | 139° |
| 2026-04-23 06:23 | 42.63008 | 52.77926 | 32925 ft | 453 kts | 139° |
| 2026-04-23 06:23 | 42.58536 | 52.83843 | 32926 ft | 451 kts | 139° |
| 2026-04-23 06:24 | 42.54041 | 52.89778 | 32927 ft | 452 kts | 139° |
| 2026-04-23 06:24 | 42.49550 | 52.95695 | 32934 ft | 452 kts | 139° |
| 2026-04-23 06:25 | 42.45040 | 53.01625 | 32921 ft | 452 kts | 139° |
| 2026-04-23 06:25 | 42.40548 | 53.07517 | 32917 ft | 453 kts | 139° |
| 2026-04-23 06:26 | 42.36021 | 53.13444 | 32929 ft | 453 kts | 139° |
| 2026-04-23 06:26 | 42.31495 | 53.19356 | 32932 ft | 454 kts | 139° |
| 2026-04-23 06:27 | 42.26964 | 53.25265 | 32932 ft | 455 kts | 139° |
| 2026-04-23 06:27 | 42.22863 | 53.31792 | 32945 ft | 459 kts | 125° |
| 2026-04-23 06:28 | 42.19385 | 53.38973 | 32941 ft | 460 kts | 126° |
| 2026-04-23 06:28 | 42.15889 | 53.46196 | 32931 ft | 460 kts | 126° |
| 2026-04-23 06:29 | 42.12388 | 53.53428 | 32936 ft | 461 kts | 125° |
| 2026-04-23 06:29 | 42.08907 | 53.60609 | 32930 ft | 460 kts | 126° |
| 2026-04-23 06:30 | 42.05393 | 53.67842 | 32937 ft | 461 kts | 126° |
| 2026-04-23 06:30 | 42.01893 | 53.75029 | 32928 ft | 461 kts | 126° |
| 2026-04-23 06:31 | 41.98377 | 53.82233 | 32941 ft | 462 kts | 126° |
| 2026-04-23 06:31 | 41.94857 | 53.89427 | 32945 ft | 462 kts | 126° |
| 2026-04-23 06:32 | 41.91331 | 53.96618 | 32948 ft | 463 kts | 126° |
| 2026-04-23 06:32 | 41.87782 | 54.03837 | 32948 ft | 462 kts | 126° |
| 2026-04-23 06:33 | 41.84243 | 54.11019 | 32957 ft | 464 kts | 126° |
| 2026-04-23 06:33 | 41.80699 | 54.18194 | 32946 ft | 463 kts | 126° |
| 2026-04-23 06:34 | 41.77126 | 54.25410 | 32954 ft | 464 kts | 126° |
| 2026-04-23 06:34 | 41.73559 | 54.32597 | 32959 ft | 466 kts | 126° |
| 2026-04-23 06:35 | 41.69968 | 54.39815 | 32962 ft | 465 kts | 126° |
| 2026-04-23 06:35 | 41.66397 | 54.46978 | 32963 ft | 466 kts | 126° |
| 2026-04-23 06:36 | 41.62804 | 54.54166 | 32968 ft | 466 kts | 126° |
| 2026-04-23 06:36 | 41.59197 | 54.61367 | 32963 ft | 466 kts | 126° |
| 2026-04-23 06:37 | 41.55599 | 54.68531 | 32973 ft | 467 kts | 127° |
| 2026-04-23 06:37 | 41.52002 | 54.75679 | 32972 ft | 466 kts | 127° |
| 2026-04-23 06:38 | 41.48368 | 54.82880 | 32966 ft | 467 kts | 127° |
| 2026-04-23 06:38 | 41.44747 | 54.90040 | 32965 ft | 468 kts | 127° |
| 2026-04-23 06:39 | 41.41118 | 54.97200 | 32974 ft | 469 kts | 127° |
| 2026-04-23 06:39 | 41.37459 | 55.04400 | 32970 ft | 468 kts | 127° |
| 2026-04-23 06:40 | 41.33822 | 55.11542 | 32976 ft | 469 kts | 127° |
| 2026-04-23 06:40 | 41.30148 | 55.18738 | 32985 ft | 470 kts | 127° |
| 2026-04-23 06:41 | 41.26494 | 55.25881 | 32978 ft | 468 kts | 127° |
| 2026-04-23 06:41 | 41.22828 | 55.33026 | 32969 ft | 469 kts | 127° |
| 2026-04-23 06:42 | 41.19169 | 55.40145 | 32968 ft | 469 kts | 127° |
| 2026-04-23 06:42 | 41.15488 | 55.47289 | 32976 ft | 470 kts | 127° |
| 2026-04-23 06:43 | 41.11801 | 55.54429 | 32980 ft | 471 kts | 127° |
| 2026-04-23 06:43 | 41.08123 | 55.61534 | 32983 ft | 470 kts | 127° |
| 2026-04-23 06:44 | 41.04407 | 55.68694 | 32974 ft | 471 kts | 128° |
| 2026-04-23 06:44 | 41.00709 | 55.75806 | 32964 ft | 470 kts | 128° |
| 2026-04-23 06:45 | 40.97018 | 55.82879 | 32962 ft | 470 kts | 128° |
| 2026-04-23 06:45 | 40.93292 | 55.90000 | 32964 ft | 470 kts | 128° |
| 2026-04-23 06:46 | 40.89576 | 55.97086 | 32961 ft | 471 kts | 128° |
| 2026-04-23 06:46 | 40.85833 | 56.04207 | 32969 ft | 471 kts | 128° |
| 2026-04-23 06:47 | 40.82117 | 56.11260 | 32973 ft | 471 kts | 128° |
| 2026-04-23 06:47 | 40.78373 | 56.18351 | 32977 ft | 470 kts | 128° |
| 2026-04-23 06:48 | 40.74657 | 56.25371 | 32970 ft | 470 kts | 128° |
| 2026-04-23 06:48 | 40.70901 | 56.32451 | 32974 ft | 471 kts | 128° |
| 2026-04-23 06:49 | 40.67153 | 56.39500 | 32969 ft | 471 kts | 128° |
| 2026-04-23 06:49 | 40.63408 | 56.46529 | 32972 ft | 471 kts | 128° |
| 2026-04-23 06:50 | 40.59660 | 56.53547 | 32976 ft | 471 kts | 128° |
| 2026-04-23 06:50 | 40.55891 | 56.60589 | 32973 ft | 470 kts | 128° |
| 2026-04-23 06:51 | 40.52126 | 56.67606 | 32964 ft | 471 kts | 129° |
| 2026-04-23 06:51 | 40.48369 | 56.74598 | 32965 ft | 471 kts | 128° |
| 2026-04-23 06:52 | 40.44590 | 56.81618 | 32964 ft | 471 kts | 129° |
| 2026-04-23 06:52 | 40.40820 | 56.88605 | 32964 ft | 471 kts | 129° |
| 2026-04-23 06:53 | 40.37044 | 56.95588 | 32967 ft | 471 kts | 129° |
| 2026-04-23 06:53 | 40.33268 | 57.02554 | 32970 ft | 471 kts | 129° |
| 2026-04-23 06:54 | 40.29454 | 57.09575 | 32969 ft | 471 kts | 129° |
| 2026-04-23 06:54 | 40.25674 | 57.16518 | 32973 ft | 471 kts | 129° |
| 2026-04-23 06:55 | 40.21675 | 57.23224 | 32982 ft | 466 kts | 137° |
| 2026-04-23 06:55 | 40.17170 | 57.29364 | 32978 ft | 467 kts | 137° |
| 2026-04-23 06:56 | 40.12957 | 57.35069 | 32980 ft | 467 kts | 138° |
| 2026-04-23 06:56 | 40.08429 | 57.41170 | 32978 ft | 468 kts | 138° |
| 2026-04-23 06:57 | 40.03914 | 57.47237 | 32982 ft | 468 kts | 138° |
| 2026-04-23 06:57 | 39.99365 | 57.53334 | 32986 ft | 468 kts | 138° |
| 2026-04-23 06:58 | 39.94828 | 57.59400 | 32988 ft | 468 kts | 138° |
| 2026-04-23 06:58 | 39.90291 | 57.65455 | 32980 ft | 468 kts | 139° |
| 2026-04-23 06:59 | 39.85740 | 57.71517 | 32979 ft | 467 kts | 139° |
| 2026-04-23 06:59 | 39.81176 | 57.77584 | 32983 ft | 468 kts | 139° |
| 2026-04-23 07:00 | 39.76641 | 57.83599 | 32984 ft | 468 kts | 139° |
| 2026-04-23 07:00 | 39.72097 | 57.89613 | 32980 ft | 468 kts | 139° |
| 2026-04-23 07:01 | 39.67531 | 57.95647 | 32987 ft | 468 kts | 139° |
| 2026-04-23 07:01 | 39.62959 | 58.01675 | 32983 ft | 468 kts | 139° |
| 2026-04-23 07:02 | 39.58408 | 58.07663 | 32983 ft | 469 kts | 139° |
| 2026-04-23 07:02 | 39.53820 | 58.13689 | 32988 ft | 469 kts | 139° |
| 2026-04-23 07:03 | 39.49238 | 58.19695 | 32981 ft | 469 kts | 139° |
| 2026-04-23 07:03 | 39.44660 | 58.25682 | 32979 ft | 469 kts | 139° |
| 2026-04-23 07:04 | 39.40077 | 58.31688 | 32987 ft | 470 kts | 139° |
| 2026-04-23 07:04 | 39.35567 | 58.37721 | 32987 ft | 469 kts | 139° |
| 2026-04-23 07:05 | 39.31020 | 58.43786 | 32988 ft | 470 kts | 139° |
| 2026-04-23 07:05 | 39.26472 | 58.49838 | 32986 ft | 470 kts | 139° |
| 2026-04-23 07:06 | 39.21938 | 58.55862 | 32987 ft | 469 kts | 139° |
| 2026-04-23 07:06 | 39.17386 | 58.61896 | 32990 ft | 469 kts | 139° |
| 2026-04-23 07:07 | 39.12843 | 58.67908 | 32975 ft | 469 kts | 139° |
| 2026-04-23 07:07 | 39.08300 | 58.73907 | 32985 ft | 469 kts | 139° |
| 2026-04-23 07:08 | 39.03708 | 58.79888 | 32980 ft | 469 kts | 140° |
| 2026-04-23 07:08 | 38.99138 | 58.85795 | 32984 ft | 468 kts | 140° |
| 2026-04-23 07:09 | 38.94528 | 58.91742 | 32991 ft | 468 kts | 140° |
| 2026-04-23 07:09 | 38.89934 | 58.97657 | 32986 ft | 468 kts | 140° |
| 2026-04-23 07:10 | 38.85318 | 59.03589 | 32993 ft | 468 kts | 140° |
| 2026-04-23 07:10 | 38.80747 | 59.09452 | 32991 ft | 468 kts | 140° |
| 2026-04-23 07:11 | 38.76133 | 59.15359 | 32990 ft | 469 kts | 140° |
| 2026-04-23 07:12 | 38.69219 | 59.24187 | 32996 ft | 469 kts | 140° |
| 2026-04-23 07:12 | 38.64637 | 59.30025 | 32995 ft | 468 kts | 140° |
| 2026-04-23 07:13 | 38.60011 | 59.35907 | 32995 ft | 467 kts | 140° |
| 2026-04-23 07:13 | 38.55603 | 59.42000 | 32993 ft | 469 kts | 137° |
| 2026-04-23 07:14 | 38.51211 | 59.48147 | 32997 ft | 469 kts | 137° |
| 2026-04-23 07:14 | 38.46804 | 59.54298 | 32990 ft | 468 kts | 137° |
| 2026-04-23 07:15 | 38.42419 | 59.60403 | 32990 ft | 468 kts | 137° |
| 2026-04-23 07:15 | 38.37994 | 59.66553 | 32987 ft | 469 kts | 138° |
| 2026-04-23 07:16 | 38.33604 | 59.72642 | 32983 ft | 467 kts | 138° |
| 2026-04-23 07:16 | 38.29218 | 59.78712 | 32984 ft | 468 kts | 138° |
| 2026-04-23 07:17 | 38.24796 | 59.84821 | 32982 ft | 466 kts | 138° |
| 2026-04-23 07:17 | 38.20435 | 59.90834 | 32983 ft | 466 kts | 138° |
| 2026-04-23 07:18 | 38.16013 | 59.96921 | 32983 ft | 466 kts | 138° |
| 2026-04-23 07:18 | 38.11648 | 60.02917 | 32981 ft | 465 kts | 138° |
| 2026-04-23 07:19 | 38.07246 | 60.08952 | 32986 ft | 465 kts | 139° |
| 2026-04-23 07:19 | 38.02875 | 60.14933 | 32984 ft | 465 kts | 139° |
| 2026-04-23 07:20 | 37.98494 | 60.20951 | 32982 ft | 465 kts | 138° |
| 2026-04-23 07:20 | 37.94108 | 60.27001 | 32989 ft | 467 kts | 139° |
| 2026-04-23 07:21 | 37.89737 | 60.33020 | 32986 ft | 467 kts | 138° |
| 2026-04-23 07:21 | 37.85312 | 60.39101 | 32997 ft | 468 kts | 139° |
| 2026-04-23 07:22 | 37.80936 | 60.45103 | 32997 ft | 467 kts | 139° |
| 2026-04-23 07:22 | 37.76535 | 60.51126 | 32996 ft | 466 kts | 139° |
| 2026-04-23 07:23 | 37.72056 | 60.57014 | 33002 ft | 464 kts | 141° |
| 2026-04-23 07:23 | 37.67520 | 60.62822 | 32999 ft | 465 kts | 141° |
| 2026-04-23 07:24 | 37.63004 | 60.68601 | 32992 ft | 464 kts | 142° |
| 2026-04-23 07:24 | 37.58460 | 60.74403 | 32992 ft | 465 kts | 142° |
| 2026-04-23 07:25 | 37.53907 | 60.80206 | 32992 ft | 465 kts | 142° |
| 2026-04-23 07:25 | 37.49371 | 60.85978 | 32994 ft | 466 kts | 142° |
| 2026-04-23 07:26 | 37.44825 | 60.91753 | 32994 ft | 466 kts | 142° |
| 2026-04-23 07:26 | 37.40246 | 60.97559 | 32994 ft | 466 kts | 142° |
| 2026-04-23 07:27 | 37.35682 | 61.03333 | 33166 ft | 469 kts | 142° |
| 2026-04-23 07:27 | 37.33390 | 61.06232 | 33484 ft | 468 kts | 142° |
| 2026-04-23 07:27 | 37.31103 | 61.09120 | 33815 ft | 467 kts | 142° |
| 2026-04-23 07:27 | 37.28811 | 61.12011 | 34081 ft | 466 kts | 142° |
| 2026-04-23 07:28 | 37.26553 | 61.14857 | 34281 ft | 466 kts | 142° |
| 2026-04-23 07:28 | 37.24261 | 61.17741 | 34443 ft | 467 kts | 142° |
| 2026-04-23 07:28 | 37.21972 | 61.20622 | 34699 ft | 466 kts | 142° |
| 2026-04-23 07:28 | 37.19684 | 61.23495 | 34856 ft | 467 kts | 142° |
| 2026-04-23 07:29 | 37.17411 | 61.26347 | 34979 ft | 463 kts | 142° |
| 2026-04-23 07:29 | 37.12843 | 61.32067 | 34977 ft | 464 kts | 142° |
| 2026-04-23 07:30 | 37.08303 | 61.37742 | 34986 ft | 464 kts | 142° |
| 2026-04-23 07:30 | 37.03726 | 61.43454 | 34979 ft | 465 kts | 143° |
| 2026-04-23 07:31 | 36.99166 | 61.49134 | 34983 ft | 465 kts | 142° |
| 2026-04-23 07:31 | 36.94578 | 61.54837 | 34988 ft | 465 kts | 143° |
| 2026-04-23 07:32 | 36.89980 | 61.60544 | 34993 ft | 466 kts | 142° |
| 2026-04-23 07:32 | 36.85374 | 61.66256 | 34993 ft | 464 kts | 143° |
| 2026-04-23 07:33 | 36.80790 | 61.71930 | 34990 ft | 464 kts | 143° |
| 2026-04-23 07:33 | 36.76244 | 61.77546 | 34990 ft | 464 kts | 143° |
| 2026-04-23 07:34 | 36.71649 | 61.83214 | 34991 ft | 464 kts | 143° |
| 2026-04-23 07:34 | 36.67071 | 61.88850 | 34996 ft | 464 kts | 143° |
| 2026-04-23 07:35 | 36.62510 | 61.94458 | 34992 ft | 463 kts | 144° |
| 2026-04-23 07:35 | 36.57906 | 62.00104 | 34998 ft | 465 kts | 143° |
| 2026-04-23 07:36 | 36.53299 | 62.05748 | 34994 ft | 463 kts | 143° |
| 2026-04-23 07:36 | 36.48732 | 62.11332 | 34999 ft | 464 kts | 143° |
| 2026-04-23 07:37 | 36.44122 | 62.16957 | 35001 ft | 464 kts | 143° |
| 2026-04-23 07:37 | 36.39560 | 62.22517 | 35000 ft | 461 kts | 143° |
| 2026-04-23 07:38 | 36.34956 | 62.28115 | 35004 ft | 462 kts | 143° |
| 2026-04-23 07:38 | 36.30367 | 62.33686 | 34996 ft | 464 kts | 143° |
| 2026-04-23 07:39 | 36.25768 | 62.39261 | 34993 ft | 463 kts | 143° |
| 2026-04-23 07:39 | 36.21165 | 62.44830 | 34989 ft | 462 kts | 143° |
| 2026-04-23 07:40 | 36.16579 | 62.50368 | 34987 ft | 461 kts | 144° |
| 2026-04-23 07:40 | 36.11985 | 62.55906 | 34994 ft | 463 kts | 144° |
| 2026-04-23 07:41 | 36.07395 | 62.61432 | 34987 ft | 462 kts | 143° |
| 2026-04-23 07:41 | 36.02761 | 62.67001 | 34975 ft | 461 kts | 144° |
| 2026-04-23 07:42 | 35.98170 | 62.72508 | 34964 ft | 459 kts | 144° |
| 2026-04-23 07:42 | 35.93585 | 62.77995 | 34965 ft | 462 kts | 144° |
| 2026-04-23 07:43 | 35.88962 | 62.83522 | 34974 ft | 462 kts | 144° |
| 2026-04-23 07:43 | 35.84337 | 62.89041 | 34983 ft | 461 kts | 144° |
| 2026-04-23 07:44 | 35.79720 | 62.94541 | 34986 ft | 462 kts | 144° |
| 2026-04-23 07:44 | 35.75132 | 62.99999 | 34975 ft | 460 kts | 144° |
| 2026-04-23 07:45 | 35.70516 | 63.05478 | 34981 ft | 462 kts | 144° |
| 2026-04-23 07:45 | 35.65900 | 63.10947 | 34988 ft | 464 kts | 143° |
| 2026-04-23 07:46 | 35.61260 | 63.16441 | 34993 ft | 461 kts | 143° |
| 2026-04-23 07:46 | 35.56897 | 63.22226 | 35016 ft | 471 kts | 134° |
| 2026-04-23 07:47 | 35.52902 | 63.28599 | 35018 ft | 470 kts | 135° |
| 2026-04-23 07:47 | 35.48938 | 63.34912 | 35029 ft | 471 kts | 134° |
| 2026-04-23 07:48 | 35.44941 | 63.41277 | 35038 ft | 470 kts | 134° |
| 2026-04-23 07:48 | 35.40947 | 63.47625 | 35049 ft | 470 kts | 134° |
| 2026-04-23 07:49 | 35.36983 | 63.53918 | 35055 ft | 469 kts | 134° |
| 2026-04-23 07:49 | 35.33000 | 63.60227 | 35069 ft | 469 kts | 134° |
| 2026-04-23 07:50 | 35.28972 | 63.66605 | 35074 ft | 470 kts | 134° |
| 2026-04-23 07:50 | 35.25003 | 63.72913 | 35072 ft | 468 kts | 134° |
| 2026-04-23 07:51 | 35.21035 | 63.79202 | 35089 ft | 470 kts | 134° |
| 2026-04-23 07:51 | 35.17036 | 63.85533 | 35135 ft | 468 kts | 134° |
| 2026-04-23 07:52 | 35.13078 | 63.91787 | 35152 ft | 468 kts | 134° |
| 2026-04-23 07:52 | 35.09105 | 63.98052 | 35150 ft | 468 kts | 134° |
| 2026-04-23 07:53 | 35.05108 | 64.04345 | 35161 ft | 468 kts | 134° |
| 2026-04-23 07:53 | 35.01140 | 64.10580 | 35167 ft | 468 kts | 134° |
| 2026-04-23 07:54 | 34.97149 | 64.16839 | 35201 ft | 468 kts | 134° |
| 2026-04-23 07:54 | 34.93145 | 64.23109 | 35222 ft | 468 kts | 134° |
| 2026-04-23 07:55 | 34.89153 | 64.29351 | 35274 ft | 467 kts | 134° |
| 2026-04-23 07:55 | 34.85141 | 64.35609 | 35291 ft | 468 kts | 134° |
| 2026-04-23 07:56 | 34.81127 | 64.41862 | 35331 ft | 468 kts | 134° |
| 2026-04-23 07:56 | 34.77133 | 64.48071 | 35336 ft | 469 kts | 134° |
| 2026-04-23 07:57 | 34.73124 | 64.54295 | 35349 ft | 466 kts | 134° |
| 2026-04-23 07:57 | 34.69118 | 64.60500 | 35382 ft | 468 kts | 134° |
| 2026-04-23 07:58 | 34.65098 | 64.66718 | 35386 ft | 469 kts | 134° |
| 2026-04-23 07:58 | 34.61047 | 64.72974 | 35385 ft | 466 kts | 134° |
| 2026-04-23 07:59 | 34.57032 | 64.79160 | 35387 ft | 467 kts | 134° |
| 2026-04-23 07:59 | 34.53038 | 64.85304 | 35416 ft | 467 kts | 134° |
| 2026-04-23 08:00 | 34.49007 | 64.91493 | 35426 ft | 468 kts | 134° |
| 2026-04-23 08:00 | 34.44956 | 64.97688 | 35426 ft | 468 kts | 134° |
| 2026-04-23 08:01 | 34.40948 | 65.03809 | 35432 ft | 467 kts | 134° |
| 2026-04-23 08:01 | 34.36899 | 65.09980 | 35432 ft | 467 kts | 134° |
| 2026-04-23 08:02 | 34.32847 | 65.16144 | 35436 ft | 468 kts | 134° |
| 2026-04-23 08:02 | 34.28822 | 65.22258 | 35440 ft | 468 kts | 134° |
| 2026-04-23 08:03 | 34.24771 | 65.28400 | 35441 ft | 468 kts | 134° |
| 2026-04-23 08:03 | 34.20718 | 65.34535 | 35449 ft | 467 kts | 134° |
| 2026-04-23 08:04 | 34.16657 | 65.40672 | 35458 ft | 469 kts | 134° |
| 2026-04-23 08:04 | 34.12587 | 65.46812 | 35464 ft | 468 kts | 134° |
| 2026-04-23 08:05 | 34.08516 | 65.52942 | 35469 ft | 468 kts | 134° |
| 2026-04-23 08:05 | 34.04467 | 65.59041 | 35474 ft | 470 kts | 134° |
| 2026-04-23 08:06 | 34.00497 | 65.65015 | 35473 ft | 471 kts | 134° |
| 2026-04-23 08:06 | 33.96468 | 65.71069 | 35458 ft | 468 kts | 134° |
| 2026-04-23 08:07 | 33.92405 | 65.77165 | 35467 ft | 470 kts | 134° |
| 2026-04-23 08:07 | 33.88496 | 65.83019 | 35453 ft | 468 kts | 134° |
| 2026-04-23 08:08 | 33.84415 | 65.89120 | 35465 ft | 469 kts | 134° |
| 2026-04-23 08:08 | 33.80312 | 65.95242 | 35454 ft | 472 kts | 134° |
| 2026-04-23 08:09 | 33.76207 | 66.01358 | 35454 ft | 473 kts | 134° |
| 2026-04-23 08:09 | 33.72078 | 66.07501 | 35454 ft | 470 kts | 134° |
| 2026-04-23 08:10 | 33.67982 | 66.13583 | 35457 ft | 471 kts | 134° |
| 2026-04-23 08:10 | 33.61785 | 66.22765 | 35434 ft | 472 kts | 134° |
| 2026-04-23 08:11 | 33.57676 | 66.28842 | 35432 ft | 469 kts | 134° |
| 2026-04-23 08:11 | 33.53568 | 66.34907 | 35430 ft | 468 kts | 134° |
| 2026-04-23 08:12 | 33.49468 | 66.40947 | 35432 ft | 471 kts | 134° |
| 2026-04-23 08:12 | 33.45342 | 66.47014 | 35450 ft | 468 kts | 134° |
| 2026-04-23 08:13 | 33.41234 | 66.53020 | 35482 ft | 469 kts | 134° |
| 2026-04-23 08:13 | 33.37122 | 66.59023 | 35496 ft | 467 kts | 133° |
| 2026-04-23 08:14 | 33.33037 | 66.64976 | 35500 ft | 469 kts | 133° |
| 2026-04-23 08:14 | 33.28852 | 66.71067 | 35496 ft | 464 kts | 134° |
| 2026-04-23 08:15 | 33.24755 | 66.77016 | 35498 ft | 468 kts | 134° |
| 2026-04-23 08:15 | 33.20625 | 66.83006 | 35510 ft | 465 kts | 134° |
| 2026-04-23 08:16 | 33.16547 | 66.88912 | 35521 ft | 464 kts | 134° |
| 2026-04-23 08:16 | 33.12441 | 66.94847 | 35536 ft | 465 kts | 134° |
| 2026-04-23 08:17 | 33.08320 | 67.00796 | 35537 ft | 463 kts | 134° |
| 2026-04-23 08:17 | 33.04210 | 67.06715 | 35532 ft | 463 kts | 134° |
| 2026-04-23 08:18 | 33.00109 | 67.12616 | 35526 ft | 463 kts | 134° |
| 2026-04-23 08:18 | 32.96002 | 67.18516 | 35516 ft | 464 kts | 134° |
| 2026-04-23 08:19 | 32.91897 | 67.24403 | 35486 ft | 461 kts | 134° |
| 2026-04-23 08:19 | 32.87906 | 67.30115 | 35484 ft | 463 kts | 133° |
| 2026-04-23 08:20 | 32.83784 | 67.36009 | 35460 ft | 462 kts | 133° |
| 2026-04-23 08:20 | 32.79689 | 67.41853 | 35437 ft | 461 kts | 133° |
| 2026-04-23 08:21 | 32.75541 | 67.47624 | 35433 ft | 461 kts | 135° |
| 2026-04-23 08:21 | 32.71306 | 67.53311 | 35422 ft | 460 kts | 135° |
| 2026-04-23 08:22 | 32.67068 | 67.59002 | 35409 ft | 458 kts | 135° |
| 2026-04-23 08:22 | 32.62865 | 67.64638 | 35396 ft | 459 kts | 135° |
| 2026-04-23 08:23 | 32.58710 | 67.70200 | 35372 ft | 459 kts | 135° |
| 2026-04-23 08:23 | 32.54477 | 67.75859 | 35377 ft | 458 kts | 135° |
| 2026-04-23 08:24 | 32.50237 | 67.81527 | 35368 ft | 459 kts | 134° |
| 2026-04-23 08:24 | 32.46198 | 67.87324 | 35356 ft | 458 kts | 133° |
| 2026-04-23 08:25 | 32.42145 | 67.93150 | 35357 ft | 459 kts | 133° |
| 2026-04-23 08:25 | 32.38091 | 67.98968 | 35369 ft | 457 kts | 133° |
| 2026-04-23 08:26 | 32.34053 | 68.04752 | 35378 ft | 458 kts | 133° |
| 2026-04-23 08:26 | 32.30003 | 68.10544 | 35385 ft | 456 kts | 133° |
| 2026-04-23 08:27 | 32.25951 | 68.16327 | 35396 ft | 458 kts | 133° |
| 2026-04-23 08:27 | 32.21917 | 68.22079 | 35394 ft | 457 kts | 133° |
| 2026-04-23 08:28 | 32.17845 | 68.27876 | 35408 ft | 458 kts | 133° |
| 2026-04-23 08:28 | 32.13776 | 68.33657 | 35404 ft | 458 kts | 133° |
| 2026-04-23 08:29 | 32.09726 | 68.39406 | 35392 ft | 457 kts | 133° |
| 2026-04-23 08:29 | 32.05677 | 68.45142 | 35392 ft | 458 kts | 133° |
| 2026-04-23 08:30 | 32.01602 | 68.50906 | 35365 ft | 457 kts | 133° |
| 2026-04-23 08:30 | 31.97547 | 68.56634 | 35370 ft | 457 kts | 133° |
| 2026-04-23 08:31 | 31.93460 | 68.62400 | 35356 ft | 458 kts | 133° |
| 2026-04-23 08:31 | 31.89533 | 68.67929 | 35331 ft | 457 kts | 133° |
| 2026-04-23 08:32 | 31.85435 | 68.73692 | 35334 ft | 459 kts | 133° |
| 2026-04-23 08:32 | 31.81345 | 68.79436 | 35319 ft | 458 kts | 133° |
| 2026-04-23 08:33 | 31.77247 | 68.85181 | 35308 ft | 458 kts | 133° |
| 2026-04-23 08:33 | 31.73167 | 68.90891 | 35303 ft | 457 kts | 133° |
| 2026-04-23 08:34 | 31.69084 | 68.96598 | 35301 ft | 458 kts | 133° |
| 2026-04-23 08:34 | 31.65034 | 69.02384 | 35290 ft | 458 kts | 131° |
| 2026-04-23 08:35 | 31.61112 | 69.08230 | 35281 ft | 458 kts | 131° |
| 2026-04-23 08:35 | 31.57154 | 69.14109 | 35291 ft | 459 kts | 131° |
| 2026-04-23 08:36 | 31.53213 | 69.19951 | 35266 ft | 458 kts | 131° |
| 2026-04-23 08:36 | 31.49280 | 69.25772 | 35249 ft | 458 kts | 131° |
| 2026-04-23 08:37 | 31.45319 | 69.31626 | 35229 ft | 457 kts | 131° |
| 2026-04-23 08:37 | 31.41372 | 69.37450 | 35226 ft | 457 kts | 131° |
| 2026-04-23 08:38 | 31.37420 | 69.43274 | 35224 ft | 456 kts | 131° |
| 2026-04-23 08:38 | 31.32953 | 69.48376 | 35233 ft | 449 kts | 143° |
| 2026-04-23 08:39 | 31.28109 | 69.53038 | 35249 ft | 450 kts | 144° |
| 2026-04-23 08:39 | 31.23248 | 69.57671 | 35262 ft | 453 kts | 144° |
| 2026-04-23 08:40 | 31.18436 | 69.62240 | 35251 ft | 444 kts | 144° |
| 2026-04-23 08:40 | 31.13640 | 69.66775 | 35243 ft | 447 kts | 144° |
| 2026-04-23 08:41 | 31.08842 | 69.71310 | 35250 ft | 445 kts | 144° |
| 2026-04-23 08:41 | 31.04012 | 69.75864 | 35256 ft | 446 kts | 144° |
| 2026-04-23 08:42 | 30.99211 | 69.80386 | 35250 ft | 445 kts | 144° |
| 2026-04-23 08:42 | 30.94393 | 69.84918 | 35231 ft | 444 kts | 144° |
| 2026-04-23 08:43 | 30.89574 | 69.89445 | 35229 ft | 445 kts | 144° |
| 2026-04-23 08:43 | 30.84725 | 69.93994 | 35232 ft | 445 kts | 144° |
| 2026-04-23 08:44 | 30.79892 | 69.98522 | 35240 ft | 444 kts | 144° |
| 2026-04-23 08:44 | 30.75096 | 70.03009 | 35236 ft | 445 kts | 144° |
| 2026-04-23 08:45 | 30.70271 | 70.07516 | 35193 ft | 447 kts | 144° |
| 2026-04-23 08:45 | 30.65425 | 70.12039 | 35140 ft | 446 kts | 144° |
| 2026-04-23 08:46 | 30.60569 | 70.16564 | 35066 ft | 447 kts | 144° |
| 2026-04-23 08:46 | 30.55727 | 70.21071 | 35021 ft | 448 kts | 144° |
| 2026-04-23 08:47 | 30.50853 | 70.25600 | 34969 ft | 449 kts | 144° |
| 2026-04-23 08:47 | 30.45971 | 70.30132 | 34957 ft | 449 kts | 143° |
| 2026-04-23 08:48 | 30.41117 | 70.34632 | 34937 ft | 450 kts | 143° |
| 2026-04-23 08:48 | 30.36192 | 70.39190 | 34928 ft | 452 kts | 143° |
| 2026-04-23 08:49 | 30.31311 | 70.43703 | 34896 ft | 450 kts | 143° |
| 2026-04-23 08:49 | 30.26382 | 70.48254 | 34877 ft | 452 kts | 144° |
| 2026-04-23 08:50 | 30.21481 | 70.52787 | 34812 ft | 452 kts | 143° |
| 2026-04-23 08:50 | 30.16612 | 70.57402 | 34803 ft | 451 kts | 143° |
| 2026-04-23 08:51 | 30.11732 | 70.62018 | 34786 ft | 453 kts | 142° |
| 2026-04-23 08:51 | 30.06887 | 70.66595 | 34761 ft | 452 kts | 143° |
| 2026-04-23 08:52 | 30.02009 | 70.71197 | 34761 ft | 453 kts | 143° |
| 2026-04-23 08:52 | 29.97113 | 70.75809 | 34749 ft | 452 kts | 143° |
| 2026-04-23 08:53 | 29.92246 | 70.80389 | 34752 ft | 453 kts | 143° |
| 2026-04-23 08:53 | 29.87328 | 70.85011 | 34749 ft | 453 kts | 143° |
| 2026-04-23 08:54 | 29.82456 | 70.89583 | 34738 ft | 453 kts | 143° |
| 2026-04-23 08:54 | 29.77569 | 70.94164 | 34733 ft | 454 kts | 143° |
| 2026-04-23 08:55 | 29.72642 | 70.98774 | 34729 ft | 455 kts | 143° |
| 2026-04-23 08:55 | 29.67726 | 71.03387 | 34728 ft | 456 kts | 141° |
| 2026-04-23 08:56 | 29.62996 | 71.08227 | 34718 ft | 456 kts | 140° |
| 2026-04-23 08:56 | 29.58270 | 71.13058 | 34715 ft | 456 kts | 140° |
| 2026-04-23 08:57 | 29.53523 | 71.17901 | 34718 ft | 457 kts | 140° |
| 2026-04-23 08:57 | 29.48788 | 71.22726 | 34721 ft | 456 kts | 140° |
| 2026-04-23 08:58 | 29.44021 | 71.27576 | 34718 ft | 456 kts | 140° |
| 2026-04-23 08:58 | 29.39279 | 71.32393 | 34718 ft | 455 kts | 141° |
| 2026-04-23 08:59 | 29.34542 | 71.37200 | 34720 ft | 456 kts | 141° |
| 2026-04-23 08:59 | 29.29805 | 71.42001 | 34716 ft | 455 kts | 140° |
| 2026-04-23 09:00 | 29.25099 | 71.46814 | 34726 ft | 454 kts | 140° |
| 2026-04-23 09:00 | 29.20363 | 71.51656 | 34737 ft | 454 kts | 140° |
| 2026-04-23 09:01 | 29.15658 | 71.56458 | 34742 ft | 453 kts | 140° |
| 2026-04-23 09:01 | 29.10937 | 71.61272 | 34746 ft | 452 kts | 140° |
| 2026-04-23 09:02 | 29.06229 | 71.66067 | 34744 ft | 452 kts | 141° |
| 2026-04-23 09:02 | 29.01525 | 71.70852 | 34742 ft | 452 kts | 141° |
| 2026-04-23 09:03 | 28.96822 | 71.75628 | 34746 ft | 452 kts | 141° |
| 2026-04-23 09:03 | 28.92090 | 71.80428 | 34747 ft | 451 kts | 141° |
| 2026-04-23 09:04 | 28.87390 | 71.85190 | 34752 ft | 449 kts | 141° |
| 2026-04-23 09:04 | 28.82709 | 71.89927 | 34753 ft | 449 kts | 141° |
| 2026-04-23 09:05 | 28.78068 | 71.94617 | 34753 ft | 449 kts | 141° |
| 2026-04-23 09:05 | 28.73383 | 71.99345 | 34754 ft | 448 kts | 141° |
| 2026-04-23 09:06 | 28.68713 | 72.04054 | 34754 ft | 448 kts | 141° |
| 2026-04-23 09:06 | 28.64026 | 72.08772 | 34753 ft | 448 kts | 141° |
| 2026-04-23 09:07 | 28.59354 | 72.13470 | 34751 ft | 448 kts | 141° |
| 2026-04-23 09:07 | 28.54679 | 72.18166 | 34752 ft | 448 kts | 141° |
| 2026-04-23 09:08 | 28.50014 | 72.22903 | 34753 ft | 451 kts | 136° |
| 2026-04-23 09:08 | 28.46339 | 72.28679 | 34770 ft | 457 kts | 120° |
| 2026-04-23 09:09 | 28.43349 | 72.35062 | 34746 ft | 457 kts | 120° |
| 2026-04-23 09:09 | 28.40371 | 72.41454 | 34741 ft | 458 kts | 120° |
| 2026-04-23 09:10 | 28.35926 | 72.51026 | 34745 ft | 456 kts | 119° |
| 2026-04-23 09:11 | 28.32969 | 72.57391 | 34747 ft | 455 kts | 119° |
| 2026-04-23 09:11 | 28.30001 | 72.63771 | 34750 ft | 457 kts | 119° |
| 2026-04-23 09:12 | 28.27029 | 72.70152 | 34749 ft | 456 kts | 120° |
| 2026-04-23 09:12 | 28.24034 | 72.76568 | 34760 ft | 458 kts | 120° |
| 2026-04-23 09:13 | 28.21048 | 72.82958 | 34760 ft | 458 kts | 120° |
| 2026-04-23 09:13 | 28.18060 | 72.89341 | 34763 ft | 458 kts | 120° |
| 2026-04-23 09:14 | 28.15083 | 72.95692 | 34767 ft | 457 kts | 120° |
| 2026-04-23 09:14 | 28.12101 | 73.02044 | 34769 ft | 456 kts | 120° |
| 2026-04-23 09:15 | 28.09129 | 73.08365 | 34777 ft | 455 kts | 120° |
| 2026-04-23 09:15 | 28.06133 | 73.14727 | 34786 ft | 457 kts | 120° |
| 2026-04-23 09:16 | 28.03109 | 73.21137 | 34791 ft | 458 kts | 120° |
| 2026-04-23 09:16 | 28.00107 | 73.27492 | 34792 ft | 458 kts | 120° |
| 2026-04-23 09:17 | 27.97091 | 73.33867 | 34801 ft | 459 kts | 119° |
| 2026-04-23 09:17 | 27.94079 | 73.40224 | 34801 ft | 459 kts | 119° |
| 2026-04-23 09:18 | 27.91063 | 73.46578 | 34802 ft | 460 kts | 119° |
| 2026-04-23 09:18 | 27.88011 | 73.53001 | 34800 ft | 460 kts | 119° |
| 2026-04-23 09:19 | 27.84965 | 73.59397 | 34800 ft | 460 kts | 119° |
| 2026-04-23 09:19 | 27.81945 | 73.65735 | 34801 ft | 460 kts | 120° |
| 2026-04-23 09:20 | 27.78880 | 73.72154 | 34798 ft | 460 kts | 120° |
| 2026-04-23 09:20 | 27.75908 | 73.78367 | 34799 ft | 460 kts | 120° |
| 2026-04-23 09:21 | 27.72890 | 73.84719 | 34803 ft | 461 kts | 118° |
| 2026-04-23 09:21 | 27.70011 | 73.91232 | 34801 ft | 461 kts | 117° |
| 2026-04-23 09:22 | 27.67156 | 73.97669 | 34803 ft | 462 kts | 117° |
| 2026-04-23 09:22 | 27.64272 | 74.04155 | 34809 ft | 462 kts | 117° |
| 2026-04-23 09:23 | 27.61398 | 74.10608 | 34814 ft | 461 kts | 117° |
| 2026-04-23 09:23 | 27.58908 | 74.16190 | 34820 ft | 461 kts | 117° |
| 2026-04-23 09:24 | 27.56036 | 74.22617 | 34823 ft | 460 kts | 117° |
| 2026-04-23 09:24 | 27.53147 | 74.29076 | 34824 ft | 462 kts | 117° |
| 2026-04-23 09:25 | 27.50252 | 74.35536 | 34827 ft | 462 kts | 117° |
| 2026-04-23 09:25 | 27.47359 | 74.41984 | 34826 ft | 461 kts | 117° |
| 2026-04-23 09:26 | 27.44471 | 74.48407 | 34827 ft | 461 kts | 118° |
| 2026-04-23 09:26 | 27.41565 | 74.54862 | 34832 ft | 461 kts | 118° |
| 2026-04-23 09:27 | 27.38674 | 74.61274 | 34836 ft | 460 kts | 118° |
| 2026-04-23 09:27 | 27.35771 | 74.67703 | 34838 ft | 460 kts | 118° |
| 2026-04-23 09:28 | 27.32875 | 74.74106 | 34845 ft | 460 kts | 118° |
| 2026-04-23 09:28 | 27.29962 | 74.80537 | 34846 ft | 461 kts | 118° |
| 2026-04-23 09:29 | 27.27057 | 74.86942 | 34846 ft | 461 kts | 118° |
| 2026-04-23 09:29 | 27.24211 | 74.93205 | 34842 ft | 461 kts | 118° |
| 2026-04-23 09:30 | 27.21293 | 74.99618 | 34839 ft | 461 kts | 118° |
| 2026-04-23 09:30 | 27.18375 | 75.06021 | 34837 ft | 461 kts | 118° |
| 2026-04-23 09:31 | 27.15464 | 75.12397 | 34838 ft | 460 kts | 118° |
| 2026-04-23 09:31 | 27.12547 | 75.18780 | 34838 ft | 459 kts | 118° |
| 2026-04-23 09:32 | 27.09620 | 75.25175 | 34839 ft | 459 kts | 118° |
| 2026-04-23 09:32 | 27.06707 | 75.31529 | 34841 ft | 459 kts | 118° |
| 2026-04-23 09:33 | 27.03818 | 75.37815 | 34846 ft | 459 kts | 118° |
| 2026-04-23 09:33 | 27.00979 | 75.43987 | 34846 ft | 460 kts | 118° |
| 2026-04-23 09:34 | 26.98039 | 75.50366 | 34848 ft | 460 kts | 118° |
| 2026-04-23 09:34 | 26.95074 | 75.56793 | 34849 ft | 461 kts | 118° |
| 2026-04-23 09:35 | 26.92649 | 75.62041 | 34848 ft | 461 kts | 118° |
| 2026-04-23 09:35 | 26.89715 | 75.68381 | 34840 ft | 460 kts | 119° |
| 2026-04-23 09:36 | 26.86748 | 75.74783 | 34842 ft | 460 kts | 119° |
| 2026-04-23 09:36 | 26.83812 | 75.81110 | 34832 ft | 459 kts | 119° |
| 2026-04-23 09:37 | 26.80756 | 75.87373 | 34834 ft | 457 kts | 121° |
| 2026-04-23 09:37 | 26.77606 | 75.93555 | 34829 ft | 459 kts | 121° |
| 2026-04-23 09:38 | 26.74441 | 75.99771 | 34826 ft | 459 kts | 121° |
| 2026-04-23 09:38 | 26.71283 | 76.05965 | 34822 ft | 460 kts | 121° |
| 2026-04-23 09:39 | 26.68121 | 76.12158 | 34811 ft | 460 kts | 121° |
| 2026-04-23 09:39 | 26.64955 | 76.18350 | 34809 ft | 460 kts | 121° |
| 2026-04-23 09:40 | 26.61790 | 76.24533 | 34805 ft | 460 kts | 121° |
| 2026-04-23 09:40 | 26.58603 | 76.30750 | 34801 ft | 459 kts | 121° |
| 2026-04-23 09:41 | 26.55410 | 76.36969 | 34798 ft | 459 kts | 121° |
| 2026-04-23 09:41 | 26.52227 | 76.43159 | 34800 ft | 459 kts | 121° |
| 2026-04-23 09:42 | 26.49045 | 76.49341 | 34792 ft | 458 kts | 121° |
| 2026-04-23 09:42 | 26.45887 | 76.55523 | 34791 ft | 460 kts | 119° |
| 2026-04-23 09:43 | 26.42884 | 76.61836 | 34789 ft | 461 kts | 119° |
| 2026-04-23 09:43 | 26.39851 | 76.68189 | 34790 ft | 459 kts | 119° |
| 2026-04-23 09:44 | 26.36840 | 76.74483 | 34795 ft | 459 kts | 119° |
| 2026-04-23 09:44 | 26.33826 | 76.80773 | 34795 ft | 459 kts | 119° |
| 2026-04-23 09:45 | 26.30790 | 76.87100 | 34794 ft | 459 kts | 119° |
| 2026-04-23 09:45 | 26.27775 | 76.93375 | 34790 ft | 458 kts | 119° |
| 2026-04-23 09:46 | 26.24761 | 76.99635 | 34788 ft | 458 kts | 119° |
| 2026-04-23 09:46 | 26.21750 | 77.05883 | 34782 ft | 458 kts | 119° |
| 2026-04-23 09:47 | 26.18735 | 77.12131 | 34774 ft | 459 kts | 119° |
| 2026-04-23 09:47 | 26.15706 | 77.18397 | 34774 ft | 458 kts | 119° |
| 2026-04-23 09:48 | 26.12679 | 77.24637 | 34779 ft | 457 kts | 119° |
| 2026-04-23 09:48 | 26.09658 | 77.30837 | 34782 ft | 457 kts | 120° |
| 2026-04-23 09:49 | 26.06626 | 77.37052 | 34786 ft | 457 kts | 119° |
| 2026-04-23 09:49 | 26.03580 | 77.43287 | 34793 ft | 458 kts | 120° |
| 2026-04-23 09:50 | 26.00534 | 77.49513 | 34791 ft | 457 kts | 119° |
| 2026-04-23 09:50 | 25.97490 | 77.55725 | 34796 ft | 457 kts | 119° |
| 2026-04-23 09:51 | 25.94422 | 77.61980 | 34799 ft | 457 kts | 119° |
| 2026-04-23 09:51 | 25.91415 | 77.68101 | 34792 ft | 455 kts | 120° |
| 2026-04-23 09:52 | 25.88371 | 77.74288 | 34798 ft | 455 kts | 120° |
| 2026-04-23 09:52 | 25.85324 | 77.80474 | 34805 ft | 456 kts | 120° |
| 2026-04-23 09:53 | 25.82285 | 77.86635 | 34806 ft | 456 kts | 120° |
| 2026-04-23 09:53 | 25.79236 | 77.92808 | 34799 ft | 456 kts | 120° |
| 2026-04-23 09:54 | 25.76186 | 77.98973 | 34793 ft | 456 kts | 120° |
| 2026-04-23 09:54 | 25.73156 | 78.05089 | 34785 ft | 455 kts | 120° |
| 2026-04-23 09:55 | 25.70092 | 78.11268 | 34779 ft | 455 kts | 120° |
| 2026-04-23 09:55 | 25.67051 | 78.17390 | 34775 ft | 455 kts | 120° |
| 2026-04-23 09:56 | 25.64006 | 78.23513 | 34775 ft | 455 kts | 120° |
| 2026-04-23 09:56 | 25.60952 | 78.29646 | 34773 ft | 455 kts | 120° |
| 2026-04-23 09:57 | 25.57925 | 78.35811 | 34769 ft | 456 kts | 120° |
| 2026-04-23 09:57 | 25.54888 | 78.41994 | 34771 ft | 457 kts | 120° |
| 2026-04-23 09:58 | 25.51836 | 78.48197 | 34772 ft | 457 kts | 120° |
| 2026-04-23 09:58 | 25.48786 | 78.54390 | 34766 ft | 457 kts | 120° |
| 2026-04-23 09:59 | 25.45751 | 78.60543 | 34767 ft | 457 kts | 120° |
| 2026-04-23 09:59 | 25.42673 | 78.66774 | 34758 ft | 457 kts | 120° |
| 2026-04-23 10:00 | 25.39634 | 78.72920 | 34756 ft | 456 kts | 120° |
| 2026-04-23 10:00 | 25.36569 | 78.79106 | 34761 ft | 458 kts | 120° |
| 2026-04-23 10:01 | 25.33506 | 78.85282 | 34763 ft | 458 kts | 120° |
| 2026-04-23 10:01 | 25.30443 | 78.91451 | 34766 ft | 458 kts | 120° |
| 2026-04-23 10:02 | 25.27390 | 78.97589 | 34750 ft | 457 kts | 120° |
| 2026-04-23 10:02 | 25.24327 | 79.03741 | 34740 ft | 458 kts | 120° |
| 2026-04-23 10:03 | 25.21260 | 79.09893 | 34733 ft | 458 kts | 121° |
| 2026-04-23 10:03 | 25.18169 | 79.16083 | 34739 ft | 458 kts | 121° |
| 2026-04-23 10:04 | 25.15089 | 79.22243 | 34743 ft | 459 kts | 121° |
| 2026-04-23 10:04 | 25.12009 | 79.28396 | 34744 ft | 458 kts | 121° |
| 2026-04-23 10:05 | 25.08928 | 79.34543 | 34748 ft | 459 kts | 121° |
| 2026-04-23 10:05 | 25.05835 | 79.40704 | 34755 ft | 460 kts | 121° |
| 2026-04-23 10:06 | 25.02730 | 79.46883 | 34755 ft | 459 kts | 121° |
| 2026-04-23 10:06 | 24.99639 | 79.53023 | 34762 ft | 458 kts | 121° |
| 2026-04-23 10:07 | 24.96529 | 79.59196 | 34764 ft | 459 kts | 121° |
| 2026-04-23 10:07 | 24.93415 | 79.65366 | 34758 ft | 458 kts | 121° |
| 2026-04-23 10:08 | 24.90298 | 79.71535 | 34753 ft | 459 kts | 121° |
| 2026-04-23 10:08 | 24.87170 | 79.77716 | 34758 ft | 459 kts | 121° |
| 2026-04-23 10:09 | 24.82485 | 79.86963 | 34757 ft | 461 kts | 122° |
| 2026-04-23 10:09 | 24.78992 | 79.92883 | 34763 ft | 455 kts | 132° |
| 2026-04-23 10:10 | 24.74961 | 79.98303 | 34746 ft | 455 kts | 132° |
| 2026-04-23 10:10 | 24.70919 | 80.03693 | 34761 ft | 454 kts | 133° |
| 2026-04-23 10:11 | 24.66874 | 80.09058 | 34779 ft | 456 kts | 133° |
| 2026-04-23 10:11 | 24.62831 | 80.14407 | 34786 ft | 455 kts | 133° |
| 2026-04-23 10:12 | 24.58779 | 80.19759 | 34794 ft | 457 kts | 133° |
| 2026-04-23 10:12 | 24.54709 | 80.25128 | 34800 ft | 457 kts | 133° |
| 2026-04-23 10:13 | 24.50634 | 80.30498 | 34797 ft | 457 kts | 134° |
| 2026-04-23 10:13 | 24.46554 | 80.35867 | 34792 ft | 457 kts | 134° |
| 2026-04-23 10:14 | 24.42461 | 80.41249 | 34801 ft | 456 kts | 134° |
| 2026-04-23 10:14 | 24.38385 | 80.46602 | 34802 ft | 457 kts | 134° |
| 2026-04-23 10:15 | 24.34287 | 80.51976 | 34817 ft | 459 kts | 134° |
| 2026-04-23 10:15 | 24.30185 | 80.57352 | 34825 ft | 458 kts | 134° |
| 2026-04-23 10:16 | 24.26079 | 80.62727 | 34811 ft | 458 kts | 134° |
| 2026-04-23 10:16 | 24.21936 | 80.68144 | 34810 ft | 458 kts | 135° |
| 2026-04-23 10:17 | 24.17850 | 80.73481 | 34797 ft | 458 kts | 135° |
| 2026-04-23 10:17 | 24.13744 | 80.78835 | 34791 ft | 458 kts | 135° |
| 2026-04-23 10:18 | 24.09649 | 80.84174 | 34798 ft | 459 kts | 135° |
| 2026-04-23 10:18 | 24.05531 | 80.89532 | 34793 ft | 457 kts | 135° |
| 2026-04-23 10:19 | 24.01424 | 80.94873 | 34795 ft | 459 kts | 135° |
| 2026-04-23 10:19 | 23.97287 | 81.00246 | 34801 ft | 460 kts | 135° |
| 2026-04-23 10:20 | 23.93172 | 81.05589 | 34810 ft | 458 kts | 136° |
| 2026-04-23 10:20 | 23.89036 | 81.10947 | 34822 ft | 461 kts | 136° |
| 2026-04-23 10:21 | 23.84850 | 81.16367 | 34810 ft | 462 kts | 136° |
| 2026-04-23 10:21 | 23.80782 | 81.21627 | 34801 ft | 462 kts | 137° |
| 2026-04-23 10:22 | 23.76611 | 81.27015 | 34833 ft | 463 kts | 137° |
| 2026-04-23 10:22 | 23.72442 | 81.32395 | 34837 ft | 462 kts | 136° |
| 2026-04-23 10:23 | 23.68262 | 81.37784 | 34858 ft | 463 kts | 137° |
| 2026-04-23 10:23 | 23.64091 | 81.43153 | 34939 ft | 466 kts | 137° |
| 2026-04-23 10:24 | 23.61998 | 81.45848 | 35322 ft | 465 kts | 137° |
| 2026-04-23 10:24 | 23.59886 | 81.48564 | 35645 ft | 464 kts | 138° |
| 2026-04-23 10:24 | 23.57793 | 81.51252 | 35847 ft | 466 kts | 138° |
| 2026-04-23 10:24 | 23.55688 | 81.53960 | 36175 ft | 466 kts | 139° |
| 2026-04-23 10:25 | 23.53578 | 81.56667 | 36506 ft | 465 kts | 139° |
| 2026-04-23 10:25 | 23.51497 | 81.59338 | 36702 ft | 467 kts | 139° |
| 2026-04-23 10:25 | 23.49380 | 81.62053 | 36891 ft | 463 kts | 139° |
| 2026-04-23 10:25 | 23.47313 | 81.64704 | 36872 ft | 459 kts | 140° |
| 2026-04-23 10:26 | 23.43109 | 81.70083 | 36867 ft | 462 kts | 140° |
| 2026-04-23 10:26 | 23.38937 | 81.75418 | 36866 ft | 465 kts | 140° |
| 2026-04-23 10:27 | 23.34738 | 81.80788 | 36871 ft | 462 kts | 140° |
| 2026-04-23 10:27 | 23.30563 | 81.86114 | 36882 ft | 464 kts | 140° |
| 2026-04-23 10:28 | 23.26371 | 81.91460 | 36886 ft | 464 kts | 140° |
| 2026-04-23 10:28 | 23.22173 | 81.96812 | 36880 ft | 462 kts | 141° |
| 2026-04-23 10:29 | 23.18001 | 82.02116 | 36864 ft | 467 kts | 140° |
| 2026-04-23 10:29 | 23.13749 | 82.07521 | 36869 ft | 467 kts | 140° |
| 2026-04-23 10:30 | 23.09534 | 82.12878 | 36835 ft | 463 kts | 140° |
| 2026-04-23 10:30 | 23.05372 | 82.18221 | 36846 ft | 464 kts | 139° |
| 2026-04-23 10:31 | 23.01232 | 82.23714 | 36829 ft | 470 kts | 139° |
| 2026-04-23 10:31 | 22.97080 | 82.29215 | 36826 ft | 471 kts | 140° |
| 2026-04-23 10:32 | 22.92929 | 82.34707 | 36843 ft | 469 kts | 140° |
| 2026-04-23 10:32 | 22.88838 | 82.40109 | 36858 ft | 472 kts | 139° |
| 2026-04-23 10:33 | 22.84638 | 82.45657 | 36870 ft | 469 kts | 139° |
| 2026-04-23 10:33 | 22.80497 | 82.51115 | 36866 ft | 467 kts | 140° |
| 2026-04-23 10:34 | 22.76311 | 82.56621 | 36874 ft | 474 kts | 139° |
| 2026-04-23 10:34 | 22.72111 | 82.62154 | 36860 ft | 469 kts | 139° |
| 2026-04-23 10:35 | 22.68009 | 82.67539 | 36845 ft | 472 kts | 140° |
| 2026-04-23 10:35 | 22.63817 | 82.73045 | 36827 ft | 470 kts | 140° |
| 2026-04-23 10:36 | 22.59641 | 82.78519 | 36834 ft | 471 kts | 140° |
| 2026-04-23 10:36 | 22.55450 | 82.84010 | 36814 ft | 471 kts | 139° |
| 2026-04-23 10:37 | 22.51276 | 82.89471 | 36797 ft | 472 kts | 139° |
| 2026-04-23 10:37 | 22.47054 | 82.94991 | 36783 ft | 471 kts | 139° |
| 2026-04-23 10:38 | 22.42844 | 83.00490 | 36778 ft | 471 kts | 140° |
| 2026-04-23 10:38 | 22.38651 | 83.05960 | 36782 ft | 470 kts | 139° |
| 2026-04-23 10:39 | 22.34436 | 83.11449 | 36789 ft | 475 kts | 139° |
| 2026-04-23 10:39 | 22.30216 | 83.16946 | 36799 ft | 474 kts | 139° |
| 2026-04-23 10:40 | 22.26003 | 83.22424 | 36802 ft | 472 kts | 139° |
| 2026-04-23 10:40 | 22.21797 | 83.27889 | 36802 ft | 471 kts | 139° |
| 2026-04-23 10:41 | 22.17569 | 83.33411 | 36793 ft | 477 kts | 137° |
| 2026-04-23 10:41 | 22.13425 | 83.39058 | 36788 ft | 474 kts | 138° |
| 2026-04-23 10:42 | 22.09315 | 83.44639 | 36781 ft | 474 kts | 138° |
| 2026-04-23 10:42 | 22.05106 | 83.50225 | 36757 ft | 475 kts | 139° |
| 2026-04-23 10:43 | 22.00919 | 83.55693 | 36753 ft | 471 kts | 139° |
| 2026-04-23 10:43 | 21.96737 | 83.61144 | 36746 ft | 471 kts | 139° |
| 2026-04-23 10:44 | 21.92510 | 83.66650 | 36729 ft | 472 kts | 139° |
| 2026-04-23 10:44 | 21.88359 | 83.72055 | 36744 ft | 467 kts | 139° |
| 2026-04-23 10:45 | 21.84212 | 83.77444 | 36742 ft | 471 kts | 139° |
| 2026-04-23 10:45 | 21.80025 | 83.82883 | 36736 ft | 469 kts | 139° |
| 2026-04-23 10:46 | 21.75830 | 83.88328 | 36732 ft | 469 kts | 139° |
| 2026-04-23 10:46 | 21.71647 | 83.93746 | 36732 ft | 472 kts | 139° |
| 2026-04-23 10:47 | 21.67454 | 83.99180 | 36729 ft | 469 kts | 139° |
| 2026-04-23 10:47 | 21.63268 | 84.04594 | 36734 ft | 469 kts | 139° |
| 2026-04-23 10:48 | 21.59079 | 84.10006 | 36743 ft | 471 kts | 139° |
| 2026-04-23 10:48 | 21.54867 | 84.15444 | 36748 ft | 471 kts | 139° |
| 2026-04-23 10:49 | 21.50667 | 84.20864 | 36760 ft | 469 kts | 139° |
| 2026-04-23 10:49 | 21.46466 | 84.26276 | 36770 ft | 470 kts | 139° |
| 2026-04-23 10:50 | 21.42257 | 84.31692 | 36762 ft | 469 kts | 139° |
| 2026-04-23 10:50 | 21.38067 | 84.37081 | 36764 ft | 470 kts | 139° |
| 2026-04-23 10:51 | 21.33879 | 84.42461 | 36756 ft | 470 kts | 139° |
| 2026-04-23 10:51 | 21.29681 | 84.47849 | 36747 ft | 470 kts | 139° |
| 2026-04-23 10:52 | 21.25489 | 84.53225 | 36735 ft | 469 kts | 138° |
| 2026-04-23 10:52 | 21.21262 | 84.58637 | 36720 ft | 470 kts | 138° |
| 2026-04-23 10:53 | 21.17085 | 84.63985 | 36722 ft | 469 kts | 138° |
| 2026-04-23 10:53 | 21.12927 | 84.69302 | 36708 ft | 467 kts | 139° |
| 2026-04-23 10:54 | 21.08741 | 84.74646 | 36707 ft | 468 kts | 139° |
| 2026-04-23 10:54 | 21.04523 | 84.80029 | 36708 ft | 469 kts | 139° |
| 2026-04-23 10:55 | 21.00333 | 84.85368 | 36710 ft | 470 kts | 139° |
| 2026-04-23 10:55 | 20.96116 | 84.90739 | 36705 ft | 471 kts | 138° |
| 2026-04-23 10:56 | 20.91903 | 84.96101 | 36689 ft | 469 kts | 138° |
| 2026-04-23 10:56 | 20.87677 | 85.01472 | 36693 ft | 471 kts | 138° |
| 2026-04-23 10:57 | 20.83462 | 85.06825 | 36696 ft | 469 kts | 138° |
| 2026-04-23 10:57 | 20.79238 | 85.12182 | 36709 ft | 470 kts | 138° |
| 2026-04-23 10:58 | 20.75007 | 85.17546 | 36726 ft | 470 kts | 138° |
| 2026-04-23 10:58 | 20.70753 | 85.22932 | 36740 ft | 470 kts | 138° |
| 2026-04-23 10:59 | 20.66531 | 85.28273 | 36740 ft | 471 kts | 138° |
| 2026-04-23 10:59 | 20.62284 | 85.33642 | 36735 ft | 470 kts | 138° |
| 2026-04-23 11:00 | 20.58050 | 85.38986 | 36731 ft | 471 kts | 138° |
| 2026-04-23 11:00 | 20.53795 | 85.44355 | 36724 ft | 470 kts | 138° |
| 2026-04-23 11:01 | 20.49565 | 85.49684 | 36726 ft | 471 kts | 138° |
| 2026-04-23 11:01 | 20.45305 | 85.55048 | 36715 ft | 471 kts | 138° |
| 2026-04-23 11:02 | 20.41052 | 85.60398 | 36710 ft | 472 kts | 138° |
| 2026-04-23 11:02 | 20.36878 | 85.65644 | 36694 ft | 472 kts | 138° |
| 2026-04-23 11:03 | 20.32627 | 85.70982 | 36688 ft | 471 kts | 138° |
| 2026-04-23 11:03 | 20.28349 | 85.76348 | 36679 ft | 471 kts | 138° |
| 2026-04-23 11:04 | 20.24117 | 85.81675 | 36679 ft | 471 kts | 140° |
| 2026-04-23 11:04 | 20.19462 | 85.86449 | 36680 ft | 464 kts | 144° |
| 2026-04-23 11:05 | 20.14767 | 85.91208 | 36687 ft | 465 kts | 144° |
| 2026-04-23 11:05 | 20.10105 | 85.95966 | 36685 ft | 464 kts | 144° |
| 2026-04-23 11:06 | 20.03062 | 86.03166 | 36689 ft | 464 kts | 143° |
| 2026-04-23 11:07 | 19.98405 | 86.07927 | 36698 ft | 464 kts | 143° |
| 2026-04-23 11:07 | 19.93738 | 86.12700 | 36696 ft | 464 kts | 143° |
| 2026-04-23 11:08 | 19.89115 | 86.17477 | 36707 ft | 465 kts | 142° |
| 2026-04-23 11:08 | 19.84514 | 86.22337 | 36710 ft | 468 kts | 142° |
| 2026-04-23 11:09 | 19.79883 | 86.27222 | 36707 ft | 466 kts | 142° |
| 2026-04-23 11:09 | 19.75303 | 86.32048 | 36699 ft | 466 kts | 142° |
| 2026-04-23 11:10 | 19.70696 | 86.36897 | 36698 ft | 466 kts | 142° |
| 2026-04-23 11:10 | 19.66097 | 86.41733 | 36711 ft | 468 kts | 142° |
| 2026-04-23 11:11 | 19.61472 | 86.46589 | 36710 ft | 466 kts | 142° |
| 2026-04-23 11:11 | 19.56844 | 86.51405 | 36721 ft | 465 kts | 142° |
| 2026-04-23 11:12 | 19.52229 | 86.56201 | 36730 ft | 468 kts | 142° |
| 2026-04-23 11:12 | 19.47594 | 86.61019 | 36731 ft | 466 kts | 142° |
| 2026-04-23 11:13 | 19.43037 | 86.65751 | 36722 ft | 466 kts | 142° |
| 2026-04-23 11:13 | 19.38392 | 86.70568 | 36723 ft | 467 kts | 142° |
| 2026-04-23 11:14 | 19.33756 | 86.75375 | 36723 ft | 467 kts | 142° |
| 2026-04-23 11:14 | 19.29117 | 86.80180 | 36738 ft | 465 kts | 142° |
| 2026-04-23 11:15 | 19.24493 | 86.84964 | 36731 ft | 465 kts | 142° |
| 2026-04-23 11:15 | 19.19882 | 86.89732 | 36725 ft | 466 kts | 142° |
| 2026-04-23 11:16 | 19.15242 | 86.94524 | 36730 ft | 466 kts | 142° |
| 2026-04-23 11:16 | 19.10586 | 86.99329 | 36737 ft | 468 kts | 142° |
| 2026-04-23 11:17 | 19.05919 | 87.04144 | 36735 ft | 467 kts | 142° |
| 2026-04-23 11:17 | 19.01261 | 87.08944 | 36739 ft | 465 kts | 142° |
| 2026-04-23 11:18 | 18.96642 | 87.13699 | 36744 ft | 466 kts | 142° |
| 2026-04-23 11:18 | 18.92011 | 87.18465 | 36742 ft | 465 kts | 142° |
| 2026-04-23 11:19 | 18.87453 | 87.23149 | 36752 ft | 466 kts | 142° |
| 2026-04-23 11:19 | 18.82807 | 87.27921 | 36753 ft | 466 kts | 142° |
| 2026-04-23 11:20 | 18.78182 | 87.32668 | 36752 ft | 465 kts | 142° |
| 2026-04-23 11:20 | 18.73529 | 87.37439 | 36756 ft | 466 kts | 142° |
| 2026-04-23 11:21 | 18.68874 | 87.42209 | 36763 ft | 466 kts | 142° |
| 2026-04-23 11:21 | 18.64241 | 87.46953 | 36763 ft | 465 kts | 142° |
| 2026-04-23 11:22 | 18.59596 | 87.51705 | 36765 ft | 465 kts | 142° |
| 2026-04-23 11:22 | 18.54961 | 87.56441 | 36771 ft | 465 kts | 142° |
| 2026-04-23 11:23 | 18.50309 | 87.61192 | 36770 ft | 465 kts | 142° |
| 2026-04-23 11:23 | 18.45646 | 87.65952 | 36763 ft | 464 kts | 142° |
| 2026-04-23 11:24 | 18.41022 | 87.70668 | 36763 ft | 464 kts | 142° |
| 2026-04-23 11:24 | 18.36341 | 87.75436 | 36762 ft | 466 kts | 142° |
| 2026-04-23 11:25 | 18.31709 | 87.80152 | 36765 ft | 465 kts | 142° |
| 2026-04-23 11:25 | 18.27092 | 87.84876 | 36771 ft | 464 kts | 141° |
| 2026-04-23 11:26 | 18.22474 | 87.89671 | 36772 ft | 465 kts | 141° |
| 2026-04-23 11:26 | 18.17881 | 87.94433 | 36774 ft | 464 kts | 141° |
| 2026-04-23 11:27 | 18.13289 | 87.99191 | 36775 ft | 464 kts | 141° |
| 2026-04-23 11:27 | 18.08684 | 88.03957 | 36774 ft | 465 kts | 141° |
| 2026-04-23 11:28 | 18.04064 | 88.08735 | 36779 ft | 464 kts | 141° |
| 2026-04-23 11:28 | 17.99465 | 88.13487 | 36777 ft | 466 kts | 141° |
| 2026-04-23 11:29 | 17.94835 | 88.18269 | 36772 ft | 465 kts | 141° |
| 2026-04-23 11:29 | 17.90232 | 88.23019 | 36766 ft | 465 kts | 141° |
| 2026-04-23 11:30 | 17.85622 | 88.27773 | 36772 ft | 464 kts | 141° |
| 2026-04-23 11:30 | 17.80994 | 88.32541 | 36777 ft | 465 kts | 141° |
| 2026-04-23 11:31 | 17.76395 | 88.37275 | 36777 ft | 464 kts | 141° |
| 2026-04-23 11:31 | 17.71758 | 88.42045 | 36780 ft | 466 kts | 141° |
| 2026-04-23 11:32 | 17.67149 | 88.46785 | 36776 ft | 464 kts | 141° |
| 2026-04-23 11:32 | 17.62517 | 88.51542 | 36783 ft | 466 kts | 141° |
| 2026-04-23 11:33 | 17.57882 | 88.56300 | 36788 ft | 465 kts | 141° |
| 2026-04-23 11:33 | 17.53274 | 88.61026 | 36798 ft | 464 kts | 141° |
| 2026-04-23 11:34 | 17.48666 | 88.65748 | 36796 ft | 464 kts | 141° |
| 2026-04-23 11:34 | 17.44039 | 88.70486 | 36785 ft | 464 kts | 141° |
| 2026-04-23 11:35 | 17.39446 | 88.75186 | 36789 ft | 463 kts | 141° |
| 2026-04-23 11:35 | 17.34839 | 88.79897 | 36789 ft | 464 kts | 141° |
| 2026-04-23 11:36 | 17.30215 | 88.84621 | 36795 ft | 464 kts | 141° |
| 2026-04-23 11:36 | 17.25567 | 88.89368 | 36794 ft | 465 kts | 141° |
| 2026-04-23 11:37 | 17.20956 | 88.94073 | 36795 ft | 464 kts | 141° |
| 2026-04-23 11:37 | 17.16380 | 88.98798 | 36797 ft | 464 kts | 140° |
| 2026-04-23 11:38 | 17.11771 | 89.03580 | 36790 ft | 465 kts | 140° |
| 2026-04-23 11:38 | 17.07208 | 89.08312 | 36779 ft | 464 kts | 140° |
| 2026-04-23 11:39 | 17.02615 | 89.13071 | 36778 ft | 465 kts | 140° |
| 2026-04-23 11:39 | 16.98024 | 89.17824 | 36782 ft | 464 kts | 140° |
| 2026-04-23 11:40 | 16.93432 | 89.22575 | 36782 ft | 463 kts | 140° |
| 2026-04-23 11:40 | 16.88846 | 89.27315 | 36788 ft | 463 kts | 140° |
| 2026-04-23 11:41 | 16.84271 | 89.32041 | 36787 ft | 463 kts | 140° |
| 2026-04-23 11:41 | 16.79685 | 89.36776 | 36787 ft | 463 kts | 140° |
| 2026-04-23 11:42 | 16.75105 | 89.41500 | 36789 ft | 463 kts | 140° |
| 2026-04-23 11:42 | 16.70525 | 89.46222 | 36791 ft | 465 kts | 140° |
| 2026-04-23 11:43 | 16.65930 | 89.50956 | 36793 ft | 462 kts | 139° |
| 2026-04-23 11:43 | 16.61373 | 89.55646 | 36794 ft | 462 kts | 139° |
| 2026-04-23 11:44 | 16.56814 | 89.60335 | 36803 ft | 462 kts | 139° |
| 2026-04-23 11:44 | 16.52232 | 89.65045 | 36813 ft | 462 kts | 140° |
| 2026-04-23 11:45 | 16.47650 | 89.69752 | 36803 ft | 461 kts | 140° |
| 2026-04-23 11:45 | 16.43079 | 89.74445 | 36799 ft | 460 kts | 139° |
| 2026-04-23 11:46 | 16.38522 | 89.79118 | 36798 ft | 461 kts | 140° |
| 2026-04-23 11:46 | 16.33942 | 89.83813 | 36799 ft | 461 kts | 140° |
| 2026-04-23 11:47 | 16.29401 | 89.88464 | 36800 ft | 461 kts | 139° |
| 2026-04-23 11:47 | 16.24792 | 89.93182 | 36801 ft | 461 kts | 139° |
| 2026-04-23 11:48 | 16.20242 | 89.97836 | 36800 ft | 460 kts | 139° |
| 2026-04-23 11:48 | 16.15682 | 90.02498 | 36801 ft | 461 kts | 139° |
| 2026-04-23 11:49 | 16.11095 | 90.07184 | 36800 ft | 460 kts | 139° |
| 2026-04-23 11:49 | 16.06551 | 90.11822 | 36799 ft | 458 kts | 139° |
| 2026-04-23 11:50 | 16.02009 | 90.16456 | 36800 ft | 458 kts | 139° |
| 2026-04-23 11:50 | 15.97498 | 90.21175 | 36803 ft | 459 kts | 138° |
| 2026-04-23 11:51 | 15.93011 | 90.25878 | 36801 ft | 459 kts | 138° |
| 2026-04-23 11:51 | 15.88522 | 90.30581 | 36804 ft | 459 kts | 138° |
| 2026-04-23 11:52 | 15.84000 | 90.35315 | 36806 ft | 459 kts | 138° |
| 2026-04-23 11:52 | 15.79521 | 90.39999 | 36806 ft | 458 kts | 138° |
| 2026-04-23 11:53 | 15.75038 | 90.44686 | 36805 ft | 458 kts | 138° |
| 2026-04-23 11:53 | 15.70548 | 90.49377 | 36807 ft | 457 kts | 138° |
| 2026-04-23 11:54 | 15.66063 | 90.54060 | 36807 ft | 457 kts | 138° |
| 2026-04-23 11:54 | 15.61564 | 90.58752 | 36808 ft | 457 kts | 138° |
| 2026-04-23 11:55 | 15.57110 | 90.63397 | 36807 ft | 456 kts | 138° |
| 2026-04-23 11:55 | 15.52617 | 90.68077 | 36800 ft | 456 kts | 138° |
| 2026-04-23 11:56 | 15.48144 | 90.72736 | 36806 ft | 457 kts | 138° |
| 2026-04-23 11:56 | 15.43657 | 90.77404 | 36811 ft | 458 kts | 138° |
| 2026-04-23 11:57 | 15.39159 | 90.82082 | 36811 ft | 456 kts | 138° |
| 2026-04-23 11:57 | 15.34691 | 90.86725 | 36808 ft | 455 kts | 139° |
| 2026-04-23 11:58 | 15.30210 | 90.91378 | 36808 ft | 456 kts | 138° |
| 2026-04-23 11:58 | 15.25722 | 90.96036 | 36803 ft | 455 kts | 138° |
| 2026-04-23 11:59 | 15.21245 | 91.00680 | 36798 ft | 455 kts | 138° |
| 2026-04-23 11:59 | 15.16785 | 91.05302 | 36799 ft | 456 kts | 138° |
| 2026-04-23 12:00 | 15.12291 | 91.09957 | 36802 ft | 456 kts | 138° |
| 2026-04-23 12:00 | 15.07827 | 91.14578 | 36799 ft | 456 kts | 138° |
| 2026-04-23 12:01 | 15.03327 | 91.19234 | 36803 ft | 456 kts | 138° |
| 2026-04-23 12:01 | 14.98848 | 91.23865 | 36803 ft | 456 kts | 138° |
| 2026-04-23 12:02 | 14.94348 | 91.28515 | 36801 ft | 456 kts | 138° |
| 2026-04-23 12:02 | 14.89862 | 91.33147 | 36801 ft | 457 kts | 138° |
| 2026-04-23 12:03 | 14.85362 | 91.37791 | 36814 ft | 456 kts | 138° |
| 2026-04-23 12:03 | 14.80878 | 91.42416 | 36826 ft | 457 kts | 138° |
| 2026-04-23 12:04 | 14.76381 | 91.47050 | 36825 ft | 456 kts | 138° |
| 2026-04-23 12:04 | 14.71867 | 91.51700 | 36824 ft | 456 kts | 138° |
| 2026-04-23 12:05 | 14.67381 | 91.56318 | 36826 ft | 456 kts | 138° |
| 2026-04-23 12:05 | 14.62872 | 91.60956 | 36827 ft | 457 kts | 137° |
| 2026-04-23 12:06 | 14.58379 | 91.65575 | 36823 ft | 456 kts | 138° |
| 2026-04-23 12:06 | 14.51635 | 91.72504 | 36820 ft | 457 kts | 137° |
| 2026-04-23 12:07 | 14.47131 | 91.77128 | 36816 ft | 456 kts | 137° |
| 2026-04-23 12:07 | 14.42620 | 91.81756 | 36811 ft | 456 kts | 137° |
| 2026-04-23 12:08 | 14.38131 | 91.86359 | 36816 ft | 457 kts | 137° |
| 2026-04-23 12:08 | 14.33601 | 91.91001 | 36820 ft | 457 kts | 137° |
| 2026-04-23 12:09 | 14.29100 | 91.95610 | 36820 ft | 457 kts | 137° |
| 2026-04-23 12:09 | 14.24606 | 92.00222 | 36816 ft | 457 kts | 136° |
| 2026-04-23 12:10 | 14.20164 | 92.04910 | 36806 ft | 456 kts | 136° |
| 2026-04-23 12:10 | 14.15720 | 92.09594 | 36803 ft | 455 kts | 136° |
| 2026-04-23 12:11 | 14.11284 | 92.14266 | 36799 ft | 454 kts | 136° |
| 2026-04-23 12:11 | 14.06874 | 92.18908 | 36801 ft | 455 kts | 136° |
| 2026-04-23 12:12 | 14.02436 | 92.23577 | 36801 ft | 455 kts | 136° |
| 2026-04-23 12:12 | 13.98009 | 92.28231 | 36799 ft | 455 kts | 136° |
| 2026-04-23 12:13 | 13.93585 | 92.32877 | 36799 ft | 454 kts | 136° |
| 2026-04-23 12:13 | 13.89085 | 92.37401 | 36802 ft | 452 kts | 137° |
| 2026-04-23 12:14 | 13.84544 | 92.41952 | 36800 ft | 452 kts | 137° |
| 2026-04-23 12:14 | 13.80061 | 92.46443 | 36802 ft | 451 kts | 137° |
| 2026-04-23 12:15 | 13.75554 | 92.50955 | 36803 ft | 451 kts | 137° |
| 2026-04-23 12:15 | 13.71051 | 92.55461 | 36807 ft | 451 kts | 137° |
| 2026-04-23 12:16 | 13.66527 | 92.59987 | 36802 ft | 452 kts | 137° |
| 2026-04-23 12:16 | 13.62038 | 92.64473 | 36802 ft | 451 kts | 137° |
| 2026-04-23 12:17 | 13.57501 | 92.69005 | 36801 ft | 450 kts | 137° |
| 2026-04-23 12:17 | 13.53029 | 92.73470 | 36800 ft | 450 kts | 137° |
| 2026-04-23 12:18 | 13.48482 | 92.78008 | 36801 ft | 450 kts | 137° |
| 2026-04-23 12:18 | 13.43932 | 92.82546 | 36806 ft | 449 kts | 137° |
| 2026-04-23 12:19 | 13.39350 | 92.87113 | 36814 ft | 450 kts | 137° |
| 2026-04-23 12:19 | 13.34821 | 92.91625 | 36823 ft | 450 kts | 137° |
| 2026-04-23 12:20 | 13.30303 | 92.96124 | 36828 ft | 449 kts | 137° |
| 2026-04-23 12:20 | 13.25783 | 93.00621 | 36832 ft | 448 kts | 137° |
| 2026-04-23 12:21 | 13.21275 | 93.05106 | 36833 ft | 449 kts | 137° |
| 2026-04-23 12:21 | 13.16798 | 93.09555 | 36826 ft | 448 kts | 137° |
| 2026-04-23 12:22 | 13.12302 | 93.14021 | 36824 ft | 449 kts | 137° |
| 2026-04-23 12:22 | 13.07791 | 93.18501 | 36819 ft | 450 kts | 137° |
| 2026-04-23 12:23 | 13.03321 | 93.22938 | 36819 ft | 450 kts | 137° |
| 2026-04-23 12:23 | 12.98807 | 93.27415 | 36821 ft | 449 kts | 137° |
| 2026-04-23 12:24 | 12.94323 | 93.31860 | 36821 ft | 449 kts | 137° |
| 2026-04-23 12:24 | 12.89834 | 93.36308 | 36815 ft | 449 kts | 137° |
| 2026-04-23 12:25 | 12.85305 | 93.40794 | 36806 ft | 450 kts | 137° |
| 2026-04-23 12:25 | 12.80791 | 93.45262 | 36803 ft | 450 kts | 137° |
| 2026-04-23 12:26 | 12.76294 | 93.49712 | 36802 ft | 450 kts | 137° |
| 2026-04-23 12:26 | 12.71770 | 93.54185 | 36802 ft | 450 kts | 137° |
| 2026-04-23 12:27 | 12.67264 | 93.58638 | 36802 ft | 450 kts | 137° |
| 2026-04-23 12:27 | 12.62766 | 93.63081 | 36802 ft | 450 kts | 137° |
| 2026-04-23 12:28 | 12.58263 | 93.67526 | 36800 ft | 450 kts | 137° |
| 2026-04-23 12:28 | 12.53742 | 93.71987 | 36800 ft | 450 kts | 137° |
| 2026-04-23 12:29 | 12.49227 | 93.76440 | 36800 ft | 450 kts | 137° |
| 2026-04-23 12:29 | 12.44704 | 93.80898 | 36802 ft | 450 kts | 137° |
| 2026-04-23 12:30 | 12.40209 | 93.85327 | 36803 ft | 450 kts | 136° |
| 2026-04-23 12:30 | 12.35684 | 93.89783 | 36810 ft | 450 kts | 136° |
| 2026-04-23 12:31 | 12.31170 | 93.94225 | 36818 ft | 451 kts | 136° |
| 2026-04-23 12:31 | 12.26653 | 93.98669 | 36821 ft | 451 kts | 136° |
| 2026-04-23 12:32 | 12.22139 | 94.03109 | 36821 ft | 449 kts | 136° |
| 2026-04-23 12:32 | 12.17651 | 94.07574 | 36823 ft | 449 kts | 136° |
| 2026-04-23 12:33 | 12.13187 | 94.12012 | 36821 ft | 450 kts | 136° |
| 2026-04-23 12:33 | 12.08683 | 94.16487 | 36823 ft | 450 kts | 136° |
| 2026-04-23 12:34 | 12.04202 | 94.20938 | 36820 ft | 450 kts | 136° |
| 2026-04-23 12:34 | 11.99714 | 94.25394 | 36824 ft | 450 kts | 136° |
| 2026-04-23 12:35 | 11.95213 | 94.29860 | 36819 ft | 448 kts | 136° |
| 2026-04-23 12:35 | 11.90759 | 94.34278 | 36823 ft | 448 kts | 136° |
| 2026-04-23 12:36 | 11.86266 | 94.38731 | 36822 ft | 447 kts | 136° |
| 2026-04-23 12:36 | 11.81901 | 94.43256 | 36827 ft | 447 kts | 130° |
| 2026-04-23 12:37 | 11.77821 | 94.48099 | 36824 ft | 448 kts | 131° |
| 2026-04-23 12:37 | 11.73746 | 94.52897 | 36825 ft | 447 kts | 131° |
| 2026-04-23 12:38 | 11.69680 | 94.57675 | 36825 ft | 445 kts | 131° |
| 2026-04-23 12:38 | 11.65630 | 94.62431 | 36821 ft | 446 kts | 131° |
| 2026-04-23 12:39 | 11.61543 | 94.67225 | 36822 ft | 445 kts | 131° |
| 2026-04-23 12:39 | 11.57489 | 94.71979 | 36816 ft | 444 kts | 131° |
| 2026-04-23 12:40 | 11.53432 | 94.76734 | 36808 ft | 444 kts | 131° |
| 2026-04-23 12:40 | 11.49358 | 94.81506 | 36806 ft | 445 kts | 131° |
| 2026-04-23 12:41 | 11.45319 | 94.86237 | 36803 ft | 444 kts | 131° |
| 2026-04-23 12:41 | 11.41254 | 94.90993 | 36798 ft | 443 kts | 131° |
| 2026-04-23 12:42 | 11.37211 | 94.95722 | 36801 ft | 444 kts | 131° |
| 2026-04-23 12:42 | 11.33141 | 95.00481 | 36802 ft | 443 kts | 131° |
| 2026-04-23 12:43 | 11.29104 | 95.05199 | 36803 ft | 444 kts | 131° |
| 2026-04-23 12:43 | 11.25032 | 95.09956 | 36798 ft | 444 kts | 131° |
| 2026-04-23 12:44 | 11.20984 | 95.14683 | 36803 ft | 444 kts | 131° |
| 2026-04-23 12:44 | 11.16930 | 95.19413 | 36801 ft | 443 kts | 130° |
| 2026-04-23 12:45 | 11.12866 | 95.24154 | 36802 ft | 441 kts | 130° |
| 2026-04-23 12:45 | 11.08831 | 95.28859 | 36803 ft | 442 kts | 130° |
| 2026-04-23 12:46 | 11.04802 | 95.33556 | 36803 ft | 443 kts | 130° |
| 2026-04-23 12:46 | 11.00730 | 95.38298 | 36805 ft | 443 kts | 130° |
| 2026-04-23 12:47 | 10.96676 | 95.43018 | 36808 ft | 443 kts | 130° |
| 2026-04-23 12:47 | 10.92643 | 95.47712 | 36816 ft | 442 kts | 130° |
| 2026-04-23 12:48 | 10.88611 | 95.52403 | 36819 ft | 439 kts | 130° |
| 2026-04-23 12:48 | 10.84567 | 95.57106 | 36821 ft | 440 kts | 130° |
| 2026-04-23 12:49 | 10.80539 | 95.61787 | 36823 ft | 440 kts | 130° |
| 2026-04-23 12:49 | 10.76527 | 95.66448 | 36824 ft | 440 kts | 130° |
| 2026-04-23 12:50 | 10.72489 | 95.71137 | 36824 ft | 440 kts | 130° |
| 2026-04-23 12:50 | 10.68454 | 95.75821 | 36822 ft | 439 kts | 130° |
| 2026-04-23 12:51 | 10.64428 | 95.80492 | 36823 ft | 439 kts | 130° |
| 2026-04-23 12:51 | 10.60410 | 95.85152 | 36823 ft | 439 kts | 130° |
| 2026-04-23 12:52 | 10.56367 | 95.89838 | 36822 ft | 440 kts | 130° |
| 2026-04-23 12:52 | 10.52353 | 95.94489 | 36819 ft | 439 kts | 130° |
| 2026-04-23 12:53 | 10.48342 | 95.99136 | 36815 ft | 438 kts | 130° |
| 2026-04-23 12:53 | 10.44304 | 96.03811 | 36806 ft | 438 kts | 130° |
| 2026-04-23 12:54 | 10.40275 | 96.08473 | 36802 ft | 438 kts | 130° |
| 2026-04-23 12:54 | 10.36243 | 96.13137 | 36802 ft | 438 kts | 130° |
| 2026-04-23 12:55 | 10.32228 | 96.17779 | 36801 ft | 439 kts | 130° |
| 2026-04-23 12:55 | 10.28195 | 96.22440 | 36800 ft | 438 kts | 130° |
| 2026-04-23 12:56 | 10.24169 | 96.27092 | 36800 ft | 438 kts | 130° |
| 2026-04-23 12:56 | 10.20156 | 96.31727 | 36800 ft | 437 kts | 130° |
| 2026-04-23 12:57 | 10.16147 | 96.36354 | 36800 ft | 438 kts | 130° |
| 2026-04-23 12:57 | 10.12099 | 96.41026 | 36800 ft | 437 kts | 130° |
| 2026-04-23 12:58 | 10.08095 | 96.45643 | 36800 ft | 437 kts | 130° |
| 2026-04-23 12:58 | 10.04082 | 96.50269 | 36799 ft | 436 kts | 130° |
| 2026-04-23 12:59 | 10.00031 | 96.54870 | 36799 ft | 437 kts | 134° |
| 2026-04-23 12:59 | 9.95589 | 96.59098 | 36800 ft | 437 kts | 135° |
| 2026-04-23 13:00 | 9.91115 | 96.63321 | 36806 ft | 437 kts | 135° |
| 2026-04-23 13:00 | 9.86641 | 96.67530 | 36813 ft | 437 kts | 136° |
| 2026-04-23 13:01 | 9.82123 | 96.71776 | 36809 ft | 437 kts | 136° |
| 2026-04-23 13:01 | 9.77634 | 96.75990 | 36813 ft | 436 kts | 135° |
| 2026-04-23 13:02 | 9.73175 | 96.80176 | 36822 ft | 437 kts | 135° |
| 2026-04-23 13:02 | 9.68726 | 96.84350 | 36822 ft | 436 kts | 135° |
| 2026-04-23 13:03 | 9.64258 | 96.88540 | 36822 ft | 437 kts | 135° |
| 2026-04-23 13:03 | 9.59803 | 96.92715 | 36783 ft | 438 kts | 136° |
| 2026-04-23 13:04 | 9.57545 | 96.94833 | 36133 ft | 441 kts | 135° |
| 2026-04-23 13:04 | 9.55299 | 96.96936 | 35479 ft | 433 kts | 135° |
| 2026-04-23 13:04 | 9.53108 | 96.98988 | 34845 ft | 424 kts | 135° |
| 2026-04-23 13:04 | 9.50979 | 97.00982 | 34240 ft | 417 kts | 135° |
| 2026-04-23 13:05 | 9.48848 | 97.02979 | 33654 ft | 419 kts | 135° |
| 2026-04-23 13:05 | 9.46674 | 97.05016 | 33077 ft | 428 kts | 135° |
| 2026-04-23 13:05 | 9.44485 | 97.07066 | 32508 ft | 436 kts | 135° |
| 2026-04-23 13:05 | 9.42238 | 97.09169 | 31944 ft | 439 kts | 135° |
| 2026-04-23 13:06 | 9.37759 | 97.13358 | 30826 ft | 441 kts | 135° |
| 2026-04-23 13:06 | 9.35495 | 97.15476 | 30262 ft | 441 kts | 135° |
| 2026-04-23 13:06 | 9.33235 | 97.17590 | 29699 ft | 440 kts | 135° |
| 2026-04-23 13:07 | 9.31008 | 97.19672 | 29142 ft | 436 kts | 135° |
| 2026-04-23 13:07 | 9.28775 | 97.21759 | 28583 ft | 431 kts | 135° |
| 2026-04-23 13:07 | 9.26603 | 97.23790 | 28051 ft | 427 kts | 135° |
| 2026-04-23 13:07 | 9.24426 | 97.25824 | 27517 ft | 423 kts | 135° |
| 2026-04-23 13:08 | 9.22251 | 97.27856 | 26984 ft | 420 kts | 135° |
| 2026-04-23 13:08 | 9.20129 | 97.29840 | 26460 ft | 416 kts | 135° |
| 2026-04-23 13:08 | 9.17989 | 97.31839 | 25932 ft | 413 kts | 135° |
| 2026-04-23 13:08 | 9.15905 | 97.33785 | 25416 ft | 410 kts | 134° |
| 2026-04-23 13:09 | 9.13801 | 97.35751 | 24894 ft | 406 kts | 134° |
| 2026-04-23 13:09 | 9.11731 | 97.37683 | 24379 ft | 403 kts | 134° |
| 2026-04-23 13:09 | 9.09674 | 97.39603 | 23867 ft | 400 kts | 134° |
| 2026-04-23 13:09 | 9.07661 | 97.41482 | 23366 ft | 396 kts | 134° |
| 2026-04-23 13:10 | 9.05631 | 97.43378 | 22865 ft | 393 kts | 134° |
| 2026-04-23 13:10 | 9.03648 | 97.45228 | 22373 ft | 390 kts | 134° |
| 2026-04-23 13:10 | 9.01649 | 97.47093 | 21891 ft | 387 kts | 134° |
| 2026-04-23 13:10 | 8.99682 | 97.48929 | 21420 ft | 384 kts | 134° |
| 2026-04-23 13:11 | 8.97719 | 97.50760 | 20938 ft | 381 kts | 134° |
| 2026-04-23 13:11 | 8.95794 | 97.52555 | 20452 ft | 378 kts | 134° |
| 2026-04-23 13:11 | 8.93860 | 97.54359 | 19954 ft | 375 kts | 134° |
| 2026-04-23 13:11 | 8.91939 | 97.56150 | 19452 ft | 372 kts | 134° |
| 2026-04-23 13:12 | 8.90060 | 97.57902 | 18955 ft | 369 kts | 134° |
| 2026-04-23 13:12 | 8.88232 | 97.59605 | 18469 ft | 366 kts | 135° |
| 2026-04-23 13:12 | 8.86381 | 97.61330 | 17978 ft | 362 kts | 135° |
| 2026-04-23 13:12 | 8.84514 | 97.63068 | 17518 ft | 359 kts | 135° |
| 2026-04-23 13:13 | 8.82678 | 97.64771 | 17094 ft | 357 kts | 135° |
| 2026-04-23 13:13 | 8.80831 | 97.66483 | 16662 ft | 355 kts | 135° |
| 2026-04-23 13:13 | 8.78992 | 97.68190 | 16227 ft | 353 kts | 135° |
| 2026-04-23 13:13 | 8.77178 | 97.69872 | 15795 ft | 350 kts | 135° |
| 2026-04-23 13:14 | 8.75373 | 97.71545 | 15362 ft | 348 kts | 135° |
| 2026-04-23 13:14 | 8.73610 | 97.73181 | 14935 ft | 346 kts | 135° |
| 2026-04-23 13:14 | 8.71834 | 97.74827 | 14531 ft | 343 kts | 135° |
| 2026-04-23 13:14 | 8.70095 | 97.76439 | 14142 ft | 340 kts | 136° |
| 2026-04-23 13:15 | 8.68346 | 97.78061 | 13744 ft | 338 kts | 136° |
| 2026-04-23 13:15 | 8.66626 | 97.79655 | 13340 ft | 335 kts | 136° |
| 2026-04-23 13:15 | 8.64898 | 97.81255 | 12927 ft | 332 kts | 136° |
| 2026-04-23 13:15 | 8.63197 | 97.82831 | 12523 ft | 330 kts | 136° |
| 2026-04-23 13:16 | 8.61503 | 97.84400 | 12114 ft | 329 kts | 136° |
| 2026-04-23 13:16 | 8.59812 | 97.85967 | 11699 ft | 329 kts | 136° |
| 2026-04-23 13:16 | 8.58132 | 97.87522 | 11258 ft | 327 kts | 136° |
| 2026-04-23 13:16 | 8.56473 | 97.89058 | 10831 ft | 325 kts | 136° |
| 2026-04-23 13:17 | 8.54797 | 97.90610 | 10450 ft | 322 kts | 136° |
| 2026-04-23 13:17 | 8.53154 | 97.92131 | 10255 ft | 312 kts | 136° |
| 2026-04-23 13:17 | 8.51587 | 97.93581 | 10235 ft | 296 kts | 136° |
| 2026-04-23 13:17 | 8.50118 | 97.94940 | 10212 ft | 277 kts | 136° |
| 2026-04-23 13:18 | 8.48675 | 97.96220 | 10134 ft | 278 kts | 144° |
| 2026-04-23 13:18 | 8.46895 | 97.97101 | 10082 ft | 287 kts | 156° |
| 2026-04-23 13:18 | 8.45037 | 97.97861 | 10052 ft | 287 kts | 156° |
| 2026-04-23 13:18 | 8.43176 | 97.98628 | 10007 ft | 287 kts | 156° |
| 2026-04-23 13:19 | 8.41339 | 97.99377 | 9995 ft | 286 kts | 156° |
| 2026-04-23 13:19 | 8.39485 | 98.00127 | 9997 ft | 286 kts | 156° |
| 2026-04-23 13:19 | 8.37613 | 98.00884 | 9995 ft | 286 kts | 156° |
| 2026-04-23 13:19 | 8.35751 | 98.01634 | 9997 ft | 287 kts | 156° |
| 2026-04-23 13:20 | 8.33859 | 98.02305 | 9996 ft | 287 kts | 168° |
| 2026-04-23 13:20 | 8.31870 | 98.02550 | 10003 ft | 289 kts | 173° |
| 2026-04-23 13:20 | 8.29838 | 98.02760 | 9994 ft | 289 kts | 173° |
| 2026-04-23 13:20 | 8.27826 | 98.02965 | 9995 ft | 288 kts | 173° |
| 2026-04-23 13:21 | 8.25826 | 98.03162 | 9994 ft | 289 kts | 173° |
| 2026-04-23 13:21 | 8.23807 | 98.03359 | 9996 ft | 289 kts | 173° |
| 2026-04-23 13:21 | 8.21889 | 98.03822 | 10003 ft | 285 kts | 151° |
| 2026-04-23 13:21 | 8.20349 | 98.05067 | 9985 ft | 285 kts | 125° |
| 2026-04-23 13:22 | 8.19540 | 98.06838 | 9912 ft | 282 kts | 98° |
| 2026-04-23 13:22 | 8.19476 | 98.08784 | 9820 ft | 281 kts | 86° |
| 2026-04-23 13:22 | 8.19577 | 98.10768 | 9690 ft | 280 kts | 86° |
| 2026-04-23 13:22 | 8.19704 | 98.12711 | 9562 ft | 279 kts | 85° |
| 2026-04-23 13:23 | 8.19857 | 98.14668 | 9431 ft | 279 kts | 84° |
| 2026-04-23 13:23 | 8.20024 | 98.16627 | 9304 ft | 278 kts | 84° |
| 2026-04-23 13:23 | 8.20197 | 98.18568 | 9182 ft | 276 kts | 84° |
| 2026-04-23 13:23 | 8.20375 | 98.20514 | 9063 ft | 277 kts | 84° |
| 2026-04-23 13:24 | 8.20555 | 98.22451 | 8944 ft | 275 kts | 84° |
| 2026-04-23 13:24 | 8.20736 | 98.24392 | 8822 ft | 274 kts | 84° |
| 2026-04-23 13:24 | 8.20915 | 98.26301 | 8708 ft | 274 kts | 84° |
| 2026-04-23 13:24 | 8.21098 | 98.28250 | 8595 ft | 273 kts | 84° |
| 2026-04-23 13:25 | 8.21279 | 98.30176 | 8481 ft | 273 kts | 84° |
| 2026-04-23 13:25 | 8.21461 | 98.32111 | 8369 ft | 273 kts | 84° |
| 2026-04-23 13:25 | 8.21639 | 98.34000 | 8260 ft | 271 kts | 84° |
| 2026-04-23 13:25 | 8.21819 | 98.35918 | 8127 ft | 272 kts | 84° |
| 2026-04-23 13:26 | 8.21985 | 98.37681 | 7803 ft | 271 kts | 84° |
| 2026-04-23 13:26 | 8.22161 | 98.39561 | 7506 ft | 269 kts | 84° |
| 2026-04-23 13:26 | 8.22338 | 98.41442 | 7151 ft | 268 kts | 84° |
| 2026-04-23 13:26 | 8.22513 | 98.43312 | 6794 ft | 263 kts | 84° |
| 2026-04-23 13:27 | 8.22684 | 98.45137 | 6480 ft | 258 kts | 84° |
| 2026-04-23 13:27 | 8.22854 | 98.46948 | 6221 ft | 257 kts | 84° |
| 2026-04-23 13:27 | 8.23025 | 98.48775 | 5926 ft | 260 kts | 84° |
| 2026-04-23 13:27 | 8.23196 | 98.50603 | 5529 ft | 261 kts | 84° |
| 2026-04-23 13:28 | 8.23087 | 98.52414 | 5088 ft | 261 kts | 107° |
| 2026-04-23 13:28 | 8.22132 | 98.53941 | 4837 ft | 251 kts | 138° |
| 2026-04-23 13:28 | 8.20625 | 98.54736 | 4545 ft | 239 kts | 166° |
| 2026-04-23 13:28 | 8.19019 | 98.55021 | 4337 ft | 232 kts | 169° |
| 2026-04-23 13:29 | 8.17390 | 98.55270 | 3943 ft | 237 kts | 171° |
| 2026-04-23 13:29 | 8.15759 | 98.55373 | 3834 ft | 228 kts | 188° |
| 2026-04-23 13:29 | 8.14283 | 98.54745 | 3468 ft | 232 kts | 221° |
| 2026-04-23 13:29 | 8.13276 | 98.53472 | 3047 ft | 237 kts | 243° |
| 2026-04-23 13:30 | 8.12892 | 98.51910 | 2975 ft | 224 kts | 265° |
| 2026-04-23 13:30 | 8.12753 | 98.50292 | 2504 ft | 234 kts | 265° |
| 2026-04-23 13:30 | 8.12609 | 98.48666 | 2298 ft | 228 kts | 266° |
| 2026-04-23 13:30 | 8.12485 | 98.47070 | 2230 ft | 214 kts | 266° |
| 2026-04-23 13:31 | 8.12375 | 98.45599 | 2112 ft | 206 kts | 267° |
| 2026-04-23 13:31 | 8.12273 | 98.44170 | 1941 ft | 193 kts | 267° |
| 2026-04-23 13:31 | 8.12219 | 98.42865 | 1797 ft | 180 kts | 270° |
| 2026-04-23 13:31 | 8.12216 | 98.41695 | 1787 ft | 151 kts | 271° |
| 2026-04-23 13:32 | 8.12163 | 98.40704 | 1664 ft | 132 kts | 263° |
| 2026-04-23 13:32 | 8.12032 | 98.39788 | 1581 ft | 132 kts | 264° |
| 2026-04-23 13:32 | 8.11948 | 98.38836 | 1431 ft | 134 kts | 266° |
| 2026-04-23 13:32 | 8.11897 | 98.37881 | 1167 ft | 133 kts | 268° |
| 2026-04-23 13:33 | 8.11801 | 98.36936 | 937 ft | 132 kts | 264° |
| 2026-04-23 13:33 | 8.11706 | 98.35974 | 733 ft | 133 kts | 267° |
| 2026-04-23 13:33 | 8.11632 | 98.35022 | 511 ft | 131 kts | 266° |
| 2026-04-23 13:33 | 8.11539 | 98.34068 | 360 ft | 134 kts | 266° |
| 2026-04-23 13:34 | 8.11452 | 98.33104 | 151 ft | 134 kts | 265° |
| 2026-04-23 13:34 | 8.11362 | 98.32159 | 84 ft | 122 kts | 265° |
| 2026-04-23 13:34 | 8.11299 | 98.31467 | 53 ft | 76 kts | 265° |
| 2026-04-23 13:34 | 8.11268 | 98.31172 | 43 ft | 11 kts | 231° |
| 2026-04-23 13:35 | 8.11225 | 98.31128 | 43 ft | 9 kts | 230° |
| 2026-04-23 13:35 | 8.11191 | 98.31084 | 42 ft | 6 kts | 233° |
| 2026-04-23 13:35 | 8.11159 | 98.31042 | 42 ft | 7 kts | 234° |
| 2026-04-23 13:35 | 8.11124 | 98.30991 | 40 ft | 9 kts | 235° |
| 2026-04-23 13:36 | 8.11093 | 98.30939 | 40 ft | 9 kts | 245° |
| 2026-04-23 13:36 | 8.11082 | 98.30878 | 40 ft | 9 kts | 264° |
| 2026-04-23 13:36 | 8.11075 | 98.30810 | 39 ft | 9 kts | 265° |
| 2026-04-23 13:36 | 8.11069 | 98.30738 | 38 ft | 10 kts | 265° |
| 2026-04-23 13:37 | 8.11063 | 98.30670 | 37 ft | 12 kts | 265° |
| 2026-04-23 13:37 | 8.11055 | 98.30578 | 34 ft | 9 kts | 264° |
| 2026-04-23 13:37 | 8.11048 | 98.30505 | 34 ft | 10 kts | 265° |
| 2026-04-23 13:37 | 8.11037 | 98.30453 | 33 ft | 9 kts | 246° |
| 2026-04-23 13:38 | 8.10974 | 98.30399 | 34 ft | 13 kts | 199° |
| 2026-04-23 13:38 | 8.10908 | 98.30379 | 36 ft | 2 kts | 206° |
| 2026-04-23 13:38 | 8.10900 | 98.30368 | 37 ft | 2 kts | 261° |
| 2026-04-23 13:38 | 8.10905 | 98.30328 | 37 ft | 0 kts | 284° |
| 2026-04-23 13:39 | 8.10908 | 98.30316 | 37 ft | 0 kts | 285° |
| 2026-04-23 13:39 | 8.10911 | 98.30305 | 36 ft | 3 kts | 285° |
| 2026-04-23 13:39 | 8.10914 | 98.30293 | 36 ft | 0 kts | 285° |